Zarling — WDD7883 — position and weather

sailwx.info

Track history (hours):
 
Tides and Currents Weather Stations Pressure Air Temp Water Temp Dewpoint Dewpoint Depression Visibility Wind Speed Wind Dir Waves Ship Positions

Zarling

Owner: Clean Rivers Co-op, Portland, OR. More information available from US FCC via Universal Licensing System.

Last reported at 2015-Aug-29 06:33 UTC. Time now 2015-Aug-29 07:21 UTC.
Position N 46°11' W 123°51'.

Length 12 m.

Type: Pollution control. MMSI: 3699126.

Date/timePositionNaut miles runAvg speedWind from/ knotsBaromVisibWave heightAir tempDewpointWater temp
2015-Aug-29 06:33N 46°11' W 123°51'201082.5
2015-Aug-29 06:32N 46°12' W 123°23'20262.7
2015-Aug-29 06:27N 46°05' W 122°56'3943.2
2015-Aug-29 05:33N 46°11' W 123°51'39411.5
2015-Aug-29 05:27N 46°05' W 122°56'29178.3
2015-Aug-29 05:18N 45°37' W 122°48'2938.8
2015-Aug-29 04:33N 46°05' W 122°56'3910053.5
2015-Aug-29 04:33N 46°11' W 123°51'56518.6
2015-Aug-29 04:27N 45°37' W 122°48'5662.4
2015-Aug-29 03:33N 46°11' W 123°51'56355.8
2015-Aug-29 03:24N 45°37' W 122°48'29742.6
2015-Aug-29 03:21N 46°05' W 122°56'0 0.0
2015-Aug-29 02:33N 46°05' W 122°56'398279.5
2015-Aug-29 02:33N 46°11' W 123°51'56998.5
2015-Aug-29 02:30N 45°37' W 122°48'5659.1
2015-Aug-29 01:33N 46°11' W 123°51'568027.2
2015-Aug-29 01:33N 45°37' W 122°48'292023.9
2015-Aug-29 01:32N 46°05' W 122°56'3940.0
2015-Aug-29 00:33N 46°11' W 123°51'391827.9
2015-Aug-29 00:32N 46°05' W 122°56'29794.0
2015-Aug-29 00:30N 45°37' W 122°48'5659.1
2015-Aug-28 23:33N 46°11' W 123°51'56978.9
2015-Aug-28 23:30N 45°37' W 122°48'292023.5
2015-Aug-28 23:29N 46°05' W 122°56'3942.1
2015-Aug-28 22:33N 46°11' W 123°51'56521.2
2015-Aug-28 22:27N 45°37' W 122°48'291911.1
2015-Aug-28 22:26N 46°05' W 122°56'3944.6
2015-Aug-28 21:33N 46°11' W 123°51'391695.8
2015-Aug-28 21:32N 46°05' W 122°56'29121.6
2015-Aug-28 21:18N 45°37' W 122°48'5675.2
2015-Aug-28 20:33N 46°11' W 123°51'391716.5
2015-Aug-28 20:32N 46°05' W 122°56'29155.0
2015-Aug-28 20:21N 45°37' W 122°48'5670.3
2015-Aug-28 19:33N 46°11' W 123°51'567718.4
2015-Aug-28 19:33N 45°37' W 122°48'291911.5
2015-Aug-28 19:32N 46°05' W 122°56'3940.0
2015-Aug-28 18:33N 46°11' W 123°51'567432.6
2015-Aug-28 18:33N 45°37' W 122°48'291947.5
2015-Aug-28 18:32N 46°05' W 122°56'3940.0
2015-Aug-28 17:33N 46°11' W 123°51'391737.7
2015-Aug-28 17:32N 46°05' W 122°56'29825.6
2015-Aug-28 17:30N 45°37' W 122°48'5659.1
2015-Aug-28 16:33N 46°11' W 123°51'39535.2
2015-Aug-28 16:29N 46°05' W 122°56'29839.0
2015-Aug-28 16:27N 45°37' W 122°48'5662.4
2015-Aug-28 15:33N 46°11' W 123°51'391827.9
2015-Aug-28 15:32N 46°05' W 122°56'29154.3
2015-Aug-28 15:21N 45°37' W 122°48'5670.4
2015-Aug-28 14:33N 46°11' W 123°51'567167.6
2015-Aug-28 14:33N 45°37' W 122°48'291810.9
2015-Aug-28 14:32N 46°05' W 122°56'3940.0
2015-Aug-28 13:33N 46°11' W 123°51'56964.8
2015-Aug-28 13:30N 45°37' W 122°48'291843.2
2015-Aug-28 13:29N 46°05' W 122°56'3942.2
2015-Aug-28 12:33N 46°11' W 123°51'391655.9
2015-Aug-28 12:32N 46°05' W 122°56'29338.4
2015-Aug-28 12:27N 45°37' W 122°48'5662.5
2015-Aug-28 11:33N 46°11' W 123°51'567718.9
2015-Aug-28 11:33N 45°37' W 122°48'291749.5
2015-Aug-28 11:32N 46°05' W 122°56'3940.1
2015-Aug-28 10:33N 46°11' W 123°51'391599.4
2015-Aug-28 10:32N 46°05' W 122°56'29340.6
2015-Aug-28 10:27N 45°37' W 122°48'5662.4
2015-Aug-28 09:33N 46°11' W 123°51'56969.5
2015-Aug-28 09:30N 45°37' W 122°48'291843.2
2015-Aug-28 09:29N 46°05' W 122°56'3942.2
2015-Aug-28 08:33N 46°11' W 123°51'391655.9
2015-Aug-28 08:32N 46°05' W 122°56'29852.9
2015-Aug-28 08:30N 45°37' W 122°48'43673.9
2015-Aug-28 08:26N 46°12' W 123°23'2022.3
2015-Aug-28 07:33N 46°11' W 123°51'567167.6
2015-Aug-28 07:33N 45°37' W 122°48'433026.5
2015-Aug-28 07:32N 46°12' W 123°23'208142.9
2015-Aug-28 07:32N 46°05' W 122°56'3940.0
2015-Aug-28 06:33N 46°11' W 123°51'20963.9
2015-Aug-28 06:32N 46°12' W 123°23'20100.1
2015-Aug-28 06:20N 46°05' W 122°56'29867.4
2015-Aug-28 06:18N 45°37' W 122°48'5675.1
2015-Aug-28 05:33N 46°11' W 123°51'391599.4
2015-Aug-28 05:32N 46°05' W 122°56'29346.4
2015-Aug-28 05:27N 45°37' W 122°48'43200.2
2015-Aug-28 05:14N 46°12' W 123°23'2028.8
2015-Aug-28 04:33N 46°11' W 123°51'569122.4
2015-Aug-28 04:33N 45°37' W 122°48'291638.4
2015-Aug-28 04:32N 46°05' W 122°56'3940.0
2015-Aug-28 03:33N 46°11' W 123°51'39529.1
2015-Aug-28 03:29N 46°05' W 122°56'29874.7
2015-Aug-28 03:27N 45°37' W 122°48'5659.1
2015-Aug-28 02:30N 46°11' W 123°51'56983.8
2015-Aug-28 02:27N 45°37' W 122°48'29244.6
2015-Aug-28 02:20N 46°05' W 122°56'3950.4
2015-Aug-28 01:33N 46°11' W 123°51'391581.4
2015-Aug-28 01:32N 46°05' W 122°56'29345.2
2015-Aug-28 01:27N 45°37' W 122°48'5662.5
2015-Aug-28 00:33N 46°11' W 123°51'568362.2
2015-Aug-28 00:33N 45°37' W 122°48'29242.9
2015-Aug-28 00:26N 46°05' W 122°56'3944.7
2015-Aug-27 23:33N 46°11' W 123°51'391581.5
2015-Aug-27 23:32N 46°05' W 122°56'29158.1
2015-Aug-27 23:21N 45°37' W 122°48'5670.1
2015-Aug-27 22:33N 46°11' W 123°51'391636.6
2015-Aug-27 22:32N 46°05' W 122°56'29905.4
2015-Aug-27 22:30N 45°37' W 122°48'5659.0
2015-Aug-27 21:33N 46°11' W 123°51'391599.5
2015-Aug-27 21:32N 46°05' W 122°56'29217.3
2015-Aug-27 21:24N 45°37' W 122°48'5666.1
2015-Aug-27 20:33N 46°11' W 123°51'56993.5
2015-Aug-27 20:30N 45°37' W 122°48'5659.2
2015-Aug-27 19:34N 46°11' W 123°51'39384.6
2015-Aug-27 19:27N 46°05' W 122°56'29270.9
2015-Aug-27 19:21N 45°37' W 122°48'5670.3
2015-Aug-27 18:34N 46°11' W 123°51'567433.0
2015-Aug-27 18:33N 45°37' W 122°48'43373.7
2015-Aug-27 18:26N 46°12' W 123°23'20112.9
2015-Aug-27 18:15N 46°05' W 122°56'3956.0
2015-Aug-27 17:33N 46°11' W 123°51'2060.7
2015-Aug-27 17:14N 46°12' W 123°23'2028.8
2015-Aug-27 16:34N 46°11' W 123°51'39756.7
2015-Aug-27 16:30N 46°05' W 122°56'29272.3
2015-Aug-27 16:24N 45°37' W 122°48'43258.1
2015-Aug-27 16:14N 46°12' W 123°23'2028.9
2015-Aug-27 15:34N 46°11' W 123°51'568725.7
2015-Aug-27 15:33N 45°37' W 122°48'29195.9
2015-Aug-27 15:24N 46°05' W 122°56'3946.1
2015-Aug-27 14:33N 46°11' W 123°51'5610034.6
2015-Aug-27 14:33N 45°37' W 122°48'2957.8
2015-Aug-27 14:03N 46°05' W 122°56'3971.3
2015-Aug-27 13:30N 46°11' W 123°51'39258.3
2015-Aug-27 13:21N 46°05' W 122°56'20977.1
2015-Aug-27 13:20N 46°12' W 123°23'431286.2
2015-Aug-27 13:18N 45°37' W 122°48'5674.9
2015-Aug-27 12:34N 46°11' W 123°51'3920107.4
2015-Aug-27 12:33N 46°05' W 122°56'29529.3
2015-Aug-27 12:30N 45°37' W 122°48'43640.5
2015-Aug-27 12:26N 46°12' W 123°23'2022.3
2015-Aug-27 11:34N 46°11' W 123°51'20159.6
2015-Aug-27 11:26N 46°12' W 123°23'20704.7
2015-Aug-27 11:24N 46°05' W 122°56'29185.6
2015-Aug-27 11:15N 45°37' W 122°48'2941.2
2015-Aug-27 10:33N 46°05' W 122°56'295733.2
2015-Aug-27 10:33N 45°37' W 122°48'56600.8
2015-Aug-27 10:28N 46°11' W 123°51'20158.5
2015-Aug-27 10:20N 46°12' W 123°23'2025.2
2015-Aug-27 09:34N 46°11' W 123°51'3920107.4
2015-Aug-27 09:33N 46°05' W 122°56'2043.2
2015-Aug-27 09:05N 46°12' W 123°23'2037.1
2015-Aug-27 08:34N 46°11' W 123°51'56519.9
2015-Aug-27 08:27N 45°37' W 122°48'43366.6
2015-Aug-27 08:20N 46°12' W 123°23'20158.6
2015-Aug-27 08:12N 46°05' W 122°56'3960.3
2015-Aug-27 07:34N 46°11' W 123°51'3917594.0
2015-Aug-27 07:33N 46°05' W 122°56'20290.8
2015-Aug-27 07:29N 46°12' W 123°23'43512.7
2015-Aug-27 07:24N 45°37' W 122°48'0 0.0
2015-Aug-27 06:33N 45°37' W 122°48'561286.4
2015-Aug-27 06:31N 46°11' W 123°51'39380.4
2015-Aug-27 06:24N 46°05' W 122°56'20286.3
2015-Aug-27 06:20N 46°12' W 123°23'2023.7
2015-Aug-27 05:31N 46°11' W 123°51'56518.6
2015-Aug-27 05:24N 45°37' W 122°48'43645.8
2015-Aug-27 05:20N 46°12' W 123°23'20156.9
2015-Aug-27 05:12N 46°05' W 122°56'3956.2
2015-Aug-27 04:31N 46°11' W 123°51'5658.2
2015-Aug-27 03:33N 45°37' W 122°48'561270.2
2015-Aug-27 03:31N 46°11' W 123°51'39378.4
2015-Aug-27 03:24N 46°05' W 122°56'0 0.0
2015-Aug-27 02:33N 46°05' W 122°56'39842.8
2015-Aug-27 02:31N 46°11' W 123°51'56217.7
2015-Aug-27 02:15N 45°37' W 122°48'5675.0
2015-Aug-27 01:31N 46°11' W 123°51'56217.0
2015-Aug-27 01:15N 45°37' W 122°48'5675.0
2015-Aug-27 00:31N 46°11' W 123°51'56356.4
2015-Aug-27 00:21N 45°37' W 122°48'29105.3
2015-Aug-27 00:05N 46°05' W 122°56'3968.5
2015-Aug-26 23:31N 46°11' W 123°51'391340.5
2015-Aug-26 23:29N 46°05' W 122°56'29224.9
2015-Aug-26 23:21N 45°37' W 122°48'0 0.0
2015-Aug-26 22:33N 45°37' W 122°48'561270.2
2015-Aug-26 22:31N 46°11' W 123°51'391340.5
2015-Aug-26 22:29N 46°05' W 122°56'2930.9
2015-Aug-26 21:33N 45°37' W 122°48'561329.0
2015-Aug-26 21:31N 46°11' W 123°51'3990.6
2015-Aug-26 21:05N 46°05' W 122°56'3968.6
2015-Aug-26 20:31N 46°11' W 123°51'39490.4
2015-Aug-26 20:26N 46°05' W 122°56'29372.6
2015-Aug-26 20:21N 45°37' W 122°48'5666.2
2015-Aug-26 19:31N 46°11' W 123°51'56355.2
2015-Aug-26 19:21N 45°37' W 122°48'29105.0
2015-Aug-26 19:05N 46°05' W 122°56'3963.0
2015-Aug-26 18:28N 46°11' W 123°51'56522.6
2015-Aug-26 18:21N 45°37' W 122°48'29392.5
2015-Aug-26 18:17N 46°05' W 122°56'3950.8
2015-Aug-26 17:31N 46°11' W 123°51'391268.0
2015-Aug-26 17:29N 46°05' W 122°56'29657.3
2015-Aug-26 17:26N 45°37' W 122°48'2931.6
2015-Aug-26 16:32N 46°05' W 122°56'292454.9
2015-Aug-26 16:31N 45°37' W 122°48'566924.5
2015-Aug-26 16:31N 46°11' W 123°51'0 0.0
2015-Aug-26 15:31N 46°11' W 123°51'39118.8
2015-Aug-26 15:11N 46°05' W 122°56'29416.2
2015-Aug-26 15:07N 45°37' W 122°48'5692.7
2015-Aug-26 14:31N 46°11' W 123°51'39298.2
2015-Aug-26 14:23N 46°05' W 122°56'29243.4
2015-Aug-26 14:16N 45°37' W 122°48'5674.1
2015-Aug-26 13:31N 46°11' W 123°51'56376.5
2015-Aug-26 13:22N 45°37' W 122°48'0 0.0
2015-Aug-26 12:31N 45°37' W 122°48'561067.4
2015-Aug-26 12:28N 46°11' W 123°51'39485.3
2015-Aug-26 12:23N 46°05' W 122°56'0 0.0
2015-Aug-26 11:32N 46°05' W 122°56'291638.1
2015-Aug-26 11:31N 45°37' W 122°48'561078.9
2015-Aug-26 11:28N 46°11' W 123°51'5658.8
2015-Aug-26 10:31N 45°37' W 122°48'5650169.8
2015-Aug-26 10:31N 46°11' W 123°51'39214.9
2015-Aug-26 10:20N 46°05' W 122°56'20212.4
2015-Aug-26 10:14N 46°12' W 123°23'0 0.0
2015-Aug-26 09:32N 46°12' W 123°23'20879.5
2015-Aug-26 09:31N 46°11' W 123°51'39296.9
2015-Aug-26 09:23N 46°05' W 122°56'29107.2
2015-Aug-26 09:07N 45°37' W 122°48'5692.9
2015-Aug-26 08:31N 46°11' W 123°51'391172.9
2015-Aug-26 08:29N 46°05' W 122°56'20446.9
2015-Aug-26 08:26N 46°12' W 123°23'43354.0
2015-Aug-26 08:19N 45°37' W 122°48'5669.5
2015-Aug-26 07:31N 46°11' W 123°51'20740.7
2015-Aug-26 07:29N 46°12' W 123°23'431978.6
2015-Aug-26 07:28N 45°37' W 122°48'29860.0
2015-Aug-26 07:26N 46°05' W 122°56'3942.6
2015-Aug-26 06:31N 46°11' W 123°51'20710.8
2015-Aug-26 06:29N 46°12' W 123°23'43250.6
2015-Aug-26 06:19N 45°37' W 122°48'5669.5
2015-Aug-26 05:31N 46°11' W 123°51'56566.9
2015-Aug-26 05:25N 45°37' W 122°48'29156.9
2015-Aug-26 05:14N 46°05' W 122°56'0 0.0
2015-Aug-26 04:29N 46°05' W 122°56'392234.2
2015-Aug-26 04:28N 46°11' W 123°51'3942.0
2015-Aug-26 03:32N 46°05' W 122°56'291638.1
2015-Aug-26 03:31N 45°37' W 122°48'56100339.4
2015-Aug-26 03:31N 46°11' W 123°51'0 0.0
2015-Aug-26 02:31N 46°11' W 123°51'56140.3
2015-Aug-26 02:07N 45°37' W 122°48'2947.6
2015-Aug-26 01:31N 46°05' W 122°56'3946917.3
2015-Aug-26 01:31N 46°11' W 123°51'3939.1
2015-Aug-26 00:31N 46°05' W 122°56'39140748.6
2015-Aug-26 00:31N 46°11' W 123°51'56281.1
2015-Aug-26 00:19N 45°37' W 122°48'0 0.0
2015-Aug-25 23:31N 45°37' W 122°48'5633446.5
2015-Aug-25 23:31N 46°11' W 123°51'39786.3
2015-Aug-25 23:28N 46°05' W 122°56'3941.1
2015-Aug-25 22:31N 46°11' W 123°51'561166.8
2015-Aug-25 22:28N 45°37' W 122°48'29189.4
2015-Aug-25 22:19N 46°05' W 122°56'3948.8
2015-Aug-25 21:31N 46°11' W 123°51'56281.9
2015-Aug-25 21:19N 45°37' W 122°48'29283.5
2015-Aug-25 21:13N 46°05' W 122°56'2941.0
2015-Aug-25 20:31N 45°37' W 122°48'5633448.7
2015-Aug-25 20:31N 46°11' W 123°51'20245.2
2015-Aug-25 20:26N 46°12' W 123°23'20288.5
2015-Aug-25 20:22N 46°05' W 122°56'2024.6
2015-Aug-25 19:32N 46°12' W 123°23'432205.0
2015-Aug-25 19:31N 45°37' W 122°48'5666893.0
2015-Aug-25 19:31N 46°11' W 123°51'39389.9
2015-Aug-25 19:25N 46°05' W 122°56'2931.9
2015-Aug-25 18:31N 45°37' W 122°48'5625084.9
2015-Aug-25 18:31N 46°11' W 123°51'2096.4
2015-Aug-25 18:19N 46°12' W 123°23'4354.0
2015-Aug-25 17:31N 45°37' W 122°48'5633448.7
2015-Aug-25 17:31N 46°11' W 123°51'39385.6
2015-Aug-25 17:25N 46°05' W 122°56'209160.7
2015-Aug-25 17:25N 46°12' W 123°23'4347.9
2015-Aug-25 16:31N 45°37' W 122°48'5628670.3
2015-Aug-25 16:31N 46°11' W 123°51'20187.6
2015-Aug-25 16:25N 46°12' W 123°23'4348.0
2015-Aug-25 15:31N 45°37' W 122°48'437015.9
2015-Aug-25 15:31N 46°12' W 123°23'20426.4
2015-Aug-25 15:28N 46°11' W 123°51'391135.1
2015-Aug-25 15:26N 46°05' W 122°56'3942.8
2015-Aug-25 14:31N 46°11' W 123°51'39455.5
2015-Aug-25 14:26N 46°05' W 122°56'29253.6
2015-Aug-25 14:19N 45°37' W 122°48'5669.6
2015-Aug-25 13:31N 46°11' W 123°51'56563.7
2015-Aug-25 13:25N 45°37' W 122°48'29330.8
2015-Aug-25 13:20N 46°05' W 122°56'3947.9
2015-Aug-25 12:31N 46°11' W 123°51'39464.5
2015-Aug-25 12:26N 46°05' W 122°56'29252.9
2015-Aug-25 12:19N 45°37' W 122°48'0 0.0
2015-Aug-25 11:31N 45°37' W 122°48'5633446.5
2015-Aug-25 11:31N 46°11' W 123°51'39464.5
2015-Aug-25 11:26N 46°05' W 122°56'3942.7
2015-Aug-25 10:31N 46°11' W 123°51'391019.9
2015-Aug-25 10:29N 46°05' W 122°56'29179.8
2015-Aug-25 10:19N 45°37' W 122°48'0 0.0
2015-Aug-25 09:31N 45°37' W 122°48'5628670.3
2015-Aug-25 09:31N 46°11' W 123°51'39441.2
2015-Aug-25 09:26N 46°05' W 122°56'2931.5
2015-Aug-25 08:31N 45°37' W 122°48'56200678.9
2015-Aug-25 08:31N 46°11' W 123°51'39970.7
2015-Aug-25 08:29N 46°05' W 122°56'2929.9
2015-Aug-25 07:31N 45°37' W 122°48'5633446.5
2015-Aug-25 07:31N 46°11' W 123°51'39207.0
2015-Aug-25 07:20N 46°05' W 122°56'3948.2
2015-Aug-25 06:31N 46°11' W 123°51'56565.3
2015-Aug-25 06:25N 45°37' W 122°48'29316.6
2015-Aug-25 06:20N 46°05' W 122°56'2935.4
2015-Aug-25 05:31N 45°37' W 122°48'5666893.0
2015-Aug-25 05:31N 46°11' W 123°51'39433.1
2015-Aug-25 05:26N 46°05' W 122°56'3943.0
2015-Aug-25 04:31N 46°11' W 123°51'56562.1
2015-Aug-25 04:25N 45°37' W 122°48'0 0.0
2015-Aug-25 03:31N 45°37' W 122°48'56100339.4
2015-Aug-25 03:31N 46°11' W 123°51'39430.4
2015-Aug-25 03:26N 46°05' W 122°56'3943.0
2015-Aug-25 02:31N 46°11' W 123°51'56562.2
2015-Aug-25 02:25N 45°37' W 122°48'29202.4
2015-Aug-25 02:17N 46°05' W 122°56'0 0.0
2015-Aug-25 01:32N 46°05' W 122°56'394021.5
2015-Aug-25 01:31N 46°11' W 123°51'561133.9
2015-Aug-25 01:28N 45°37' W 122°48'5658.6
2015-Aug-25 00:31N 46°11' W 123°51'39991.2
2015-Aug-25 00:29N 46°05' W 122°56'29489.2
2015-Aug-25 00:25N 45°37' W 122°48'5661.9
2015-Aug-24 23:31N 46°11' W 123°51'39427.8
2015-Aug-24 23:26N 46°05' W 122°56'29137.6
2015-Aug-24 23:13N 45°37' W 122°48'0 0.0
2015-Aug-24 22:31N 45°37' W 122°48'5650169.7
2015-Aug-24 22:31N 46°11' W 123°51'39977.4
2015-Aug-24 22:29N 46°05' W 122°56'2929.9
2015-Aug-24 21:31N 45°37' W 122°48'5666893.0
2015-Aug-24 21:31N 46°11' W 123°51'39204.3
2015-Aug-24 21:20N 46°05' W 122°56'3948.3
2015-Aug-24 20:31N 46°11' W 123°51'56566.9
2015-Aug-24 20:25N 45°37' W 122°48'29674.6
2015-Aug-24 20:23N 46°05' W 122°56'0 0.0
2015-Aug-24 19:32N 46°05' W 122°56'293969.2
2015-Aug-24 19:31N 45°37' W 122°48'5650169.7
2015-Aug-24 19:31N 46°11' W 123°51'0 0.0
2015-Aug-24 18:31N 46°11' W 123°51'39429.1
2015-Aug-24 18:26N 46°05' W 122°56'293823.0
2015-Aug-24 18:25N 45°37' W 122°48'4349.3
2015-Aug-24 17:33N 46°12' W 123°23'431470.2
2015-Aug-24 17:31N 45°37' W 122°48'5633448.7
2015-Aug-24 17:31N 46°11' W 123°51'39277.1
2015-Aug-24 17:23N 46°05' W 122°56'3945.6
2015-Aug-24 16:31N 46°11' W 123°51'561146.7
2015-Aug-24 16:28N 45°37' W 122°48'43193.6
2015-Aug-24 16:15N 46°12' W 123°23'2026.8
2015-Aug-24 15:31N 46°11' W 123°51'39693.4
2015-Aug-24 15:28N 46°05' W 122°56'201465.7
2015-Aug-24 15:27N 46°12' W 123°23'2021.0
2015-Aug-24 14:31N 46°11' W 123°51'39251.8
2015-Aug-24 14:22N 46°05' W 122°56'29200.0
2015-Aug-24 14:13N 45°37' W 122°48'0 0.0
2015-Aug-24 13:31N 45°37' W 122°48'5620067.9
2015-Aug-24 13:31N 46°11' W 123°51'20282.6
2015-Aug-24 13:27N 46°12' W 123°23'2086.7
2015-Aug-24 13:13N 46°05' W 122°56'2941.3
2015-Aug-24 12:31N 45°37' W 122°48'5640135.8
2015-Aug-24 12:31N 46°11' W 123°51'396397.8
2015-Aug-24 12:31N 46°05' W 122°56'20251.8
2015-Aug-24 12:26N 46°12' W 123°23'0 0.0
2015-Aug-24 11:32N 46°12' W 123°23'433283.7
2015-Aug-24 11:31N 45°37' W 122°48'5633446.5
2015-Aug-24 11:31N 46°11' W 123°51'397408.0
2015-Aug-24 11:31N 46°05' W 122°56'2927.5
2015-Aug-24 10:28N 45°37' W 122°48'5640135.8
2015-Aug-24 10:28N 46°11' W 123°51'39703.7
2015-Aug-24 10:25N 46°05' W 122°56'2932.1
2015-Aug-24 09:31N 45°37' W 122°48'5640138.4
2015-Aug-24 09:31N 46°11' W 123°51'39250.9
2015-Aug-24 09:22N 46°05' W 122°56'3946.3
2015-Aug-24 08:31N 46°11' W 123°51'396397.8
2015-Aug-24 08:31N 46°05' W 122°56'29683.4
2015-Aug-24 08:28N 45°37' W 122°48'0 0.0
2015-Aug-24 07:31N 45°37' W 122°48'56200678.9
2015-Aug-24 07:31N 46°11' W 123°51'395630.1
2015-Aug-24 07:31N 46°05' W 122°56'3939.3
2015-Aug-24 06:31N 46°11' W 123°51'56563.7
2015-Aug-24 06:25N 45°37' W 122°48'29138.2
2015-Aug-24 06:13N 46°05' W 122°56'2029.9
2015-Aug-24 05:32N 46°12' W 123°23'201636.4
2015-Aug-24 05:31N 46°11' W 123°51'39250.0
2015-Aug-24 05:22N 46°05' W 122°56'29661.7
2015-Aug-24 05:19N 45°37' W 122°48'5665.5
2015-Aug-24 04:28N 46°11' W 123°51'20529.1
2015-Aug-24 04:26N 46°12' W 123°23'434061.4
2015-Aug-24 04:25N 45°37' W 122°48'29181.7
2015-Aug-24 04:16N 46°05' W 122°56'2027.8
2015-Aug-24 03:32N 46°12' W 123°23'433858.7
2015-Aug-24 03:31N 45°37' W 122°48'5633448.7
2015-Aug-24 03:31N 46°11' W 123°51'39189.2
2015-Aug-24 03:19N 46°05' W 122°56'3949.4
2015-Aug-24 02:31N 46°11' W 123°51'561133.9
2015-Aug-24 02:28N 45°37' W 122°48'293440.7
2015-Aug-24 02:28N 46°05' W 122°56'2930.4
2015-Aug-24 01:31N 45°37' W 122°48'5628668.4
2015-Aug-24 01:31N 46°11' W 123°51'39696.8
2015-Aug-24 01:28N 46°05' W 122°56'2930.4
2015-Aug-24 00:31N 45°37' W 122°48'5650169.7
2015-Aug-24 00:31N 46°11' W 123°51'39680.0
2015-Aug-24 00:28N 46°05' W 122°56'2930.5
2015-Aug-23 23:31N 45°37' W 122°48'5666893.0
2015-Aug-23 23:31N 46°11' W 123°51'39686.6
2015-Aug-23 23:28N 46°05' W 122°56'2930.4
2015-Aug-23 22:31N 45°37' W 122°48'5650169.7
2015-Aug-23 22:31N 46°11' W 123°51'0 0.0
2015-Aug-23 21:31N 46°11' W 123°51'561166.7
2015-Aug-23 21:28N 45°37' W 122°48'29137.0
2015-Aug-23 21:16N 46°05' W 122°56'20241.1
2015-Aug-23 21:11N 46°12' W 123°23'2029.7
2015-Aug-23 20:31N 46°11' W 123°51'56563.7
2015-Aug-23 20:25N 45°37' W 122°48'29263.3
2015-Aug-23 20:19N 46°05' W 122°56'3949.4
2015-Aug-23 19:31N 46°11' W 123°51'561140.3
2015-Aug-23 19:28N 45°37' W 122°48'293127.9
2015-Aug-23 19:28N 46°05' W 122°56'3941.5
2015-Aug-23 18:31N 46°11' W 123°51'394853.5
2015-Aug-23 18:31N 46°05' W 122°56'29313.7
2015-Aug-23 18:25N 45°37' W 122°48'43175.2
2015-Aug-23 18:11N 46°12' W 123°23'2029.8
2015-Aug-23 17:31N 46°11' W 123°51'561173.6
2015-Aug-23 17:28N 45°37' W 122°48'432143.5
2015-Aug-23 17:27N 46°12' W 123°23'20516.1
2015-Aug-23 17:25N 46°05' W 122°56'2930.5
2015-Aug-23 16:28N 45°37' W 122°48'5622297.7
2015-Aug-23 16:28N 46°11' W 123°51'39151.7
2015-Aug-23 16:13N 46°05' W 122°56'2941.5
2015-Aug-23 15:31N 45°37' W 122°48'5633446.5
2015-Aug-23 15:31N 46°11' W 123°51'394853.5
2015-Aug-23 15:31N 46°05' W 122°56'20127.0
2015-Aug-23 15:21N 46°12' W 123°23'4351.7
2015-Aug-23 14:31N 45°37' W 122°48'5628670.3
2015-Aug-23 14:31N 46°11' W 123°51'394691.7
2015-Aug-23 14:31N 46°05' W 122°56'2929.0
2015-Aug-23 13:31N 45°37' W 122°48'5640138.4
2015-Aug-23 13:31N 46°11' W 123°51'394398.5
2015-Aug-23 13:31N 46°05' W 122°56'3939.4
2015-Aug-23 12:31N 46°11' W 123°51'394691.6
2015-Aug-23 12:31N 46°05' W 122°56'29721.8
2015-Aug-23 12:28N 45°37' W 122°48'2929.9
2015-Aug-23 11:31N 46°05' W 122°56'39970.7
2015-Aug-23 11:28N 46°11' W 123°51'56566.9
2015-Aug-23 11:23N 45°37' W 122°48'0 0.0
2015-Aug-23 10:31N 45°37' W 122°48'561078.9
2015-Aug-23 10:28N 46°11' W 123°51'39246.5
2015-Aug-23 10:19N 46°05' W 122°56'3946.5
2015-Aug-23 09:28N 46°11' W 123°51'561153.4
2015-Aug-23 09:25N 45°37' W 122°48'292646.7
2015-Aug-23 09:25N 46°05' W 122°56'3943.9
2015-Aug-23 08:31N 46°11' W 123°51'39187.7
2015-Aug-23 08:19N 46°05' W 122°56'29716.7
2015-Aug-23 08:16N 45°37' W 122°48'0 0.0
2015-Aug-23 07:31N 45°37' W 122°48'5666893.0
2015-Aug-23 07:31N 46°11' W 123°51'393909.8
2015-Aug-23 07:31N 46°05' W 122°56'20340.9
2015-Aug-23 07:27N 46°12' W 123°23'0 0.0
2015-Aug-23 06:33N 46°12' W 123°23'431456.1
2015-Aug-23 06:31N 45°37' W 122°48'5650169.8
2015-Aug-23 06:31N 46°11' W 123°51'393909.7
2015-Aug-23 06:31N 46°05' W 122°56'3939.5
2015-Aug-23 05:31N 46°11' W 123°51'394139.7
2015-Aug-23 05:31N 46°05' W 122°56'29753.4
2015-Aug-23 05:29N 45°37' W 122°48'43351.6
2015-Aug-23 05:21N 46°12' W 123°23'4348.8
2015-Aug-23 04:29N 45°37' W 122°48'5625084.9
2015-Aug-23 04:28N 46°11' W 123°51'39352.8
2015-Aug-23 04:22N 46°05' W 122°56'20187.0
2015-Aug-23 04:15N 46°12' W 123°23'4358.8
2015-Aug-23 03:32N 45°37' W 122°48'5628668.4
2015-Aug-23 03:31N 46°11' W 123°51'20115.2
2015-Aug-23 03:21N 46°12' W 123°23'20505.4
2015-Aug-23 03:19N 46°05' W 122°56'3949.5
2015-Aug-23 02:31N 46°11' W 123°51'393909.8
2015-Aug-23 02:31N 46°05' W 122°56'29748.0
2015-Aug-23 02:29N 45°37' W 122°48'0 0.0
2015-Aug-23 01:32N 45°37' W 122°48'5625086.5
2015-Aug-23 01:31N 46°11' W 123°51'39243.5
2015-Aug-23 01:22N 46°05' W 122°56'3946.6
2015-Aug-23 00:31N 46°11' W 123°51'393609.0
2015-Aug-23 00:31N 46°05' W 122°56'29152.5
2015-Aug-23 00:20N 45°37' W 122°48'5669.6
2015-Aug-22 23:31N 46°11' W 123°51'561140.2
2015-Aug-22 23:29N 45°37' W 122°48'292345.4
2015-Aug-22 23:28N 46°05' W 122°56'3941.7
2015-Aug-22 22:32N 46°11' W 123°51'39351.0
2015-Aug-22 22:25N 46°05' W 122°56'29328.7
2015-Aug-22 22:20N 45°37' W 122°48'5669.6
2015-Aug-22 21:32N 46°11' W 123°51'39639.8
2015-Aug-22 21:28N 46°05' W 122°56'29153.1
2015-Aug-22 21:17N 45°37' W 122°48'5674.1
2015-Aug-22 20:31N 46°11' W 123°51'39639.8
2015-Aug-22 20:28N 46°05' W 122°56'3941.7
2015-Aug-22 19:32N 46°11' W 123°51'393432.9
2015-Aug-22 19:31N 46°05' W 122°56'29329.8
2015-Aug-22 19:26N 45°37' W 122°48'43230.7
2015-Aug-22 19:14N 46°12' W 123°23'2027.3
2015-Aug-22 18:32N 46°11' W 123°51'393518.8
2015-Aug-22 18:31N 46°05' W 122°56'29328.7
2015-Aug-22 18:26N 45°37' W 122°48'43497.9
2015-Aug-22 18:20N 46°12' W 123°23'2024.0
2015-Aug-22 17:32N 46°11' W 123°51'393273.3
2015-Aug-22 17:31N 46°05' W 122°56'29331.8
2015-Aug-22 17:26N 45°37' W 122°48'0 0.0
2015-Aug-22 16:32N 45°37' W 122°48'5633446.5
2015-Aug-22 16:32N 46°11' W 123°51'393198.9
2015-Aug-22 16:31N 46°05' W 122°56'2929.1
2015-Aug-22 15:32N 45°37' W 122°48'5666897.4
2015-Aug-22 15:32N 46°11' W 123°51'39125.2
2015-Aug-22 15:13N 46°05' W 122°56'3956.8
2015-Aug-22 14:32N 46°11' W 123°51'20145.7
2015-Aug-22 14:23N 46°12' W 123°23'43671.1
2015-Aug-22 14:20N 45°37' W 122°48'0 0.0
2015-Aug-22 13:32N 45°37' W 122°48'5628670.3
2015-Aug-22 13:32N 46°11' W 123°51'3994.9
2015-Aug-22 13:07N 46°05' W 122°56'2948.9
2015-Aug-22 12:32N 45°37' W 122°48'5650173.1
2015-Aug-22 12:32N 46°11' W 123°51'39240.6
2015-Aug-22 12:22N 46°05' W 122°56'20117.4
2015-Aug-22 12:11N 46°12' W 123°23'2029.5
2015-Aug-22 11:32N 46°11' W 123°51'392932.3
2015-Aug-22 11:31N 46°05' W 122°56'20893.7
2015-Aug-22 11:29N 46°12' W 123°23'433284.0
2015-Aug-22 11:29N 45°37' W 122°48'5658.6
2015-Aug-22 10:32N 46°11' W 123°51'39622.8
2015-Aug-22 10:28N 46°05' W 122°56'29339.5
2015-Aug-22 10:23N 45°37' W 122°48'5665.4
2015-Aug-22 09:32N 46°11' W 123°51'561146.7
2015-Aug-22 09:29N 45°37' W 122°48'291947.1
2015-Aug-22 09:28N 46°05' W 122°56'2074.7
2015-Aug-22 09:11N 46°12' W 123°23'2029.5
2015-Aug-22 08:32N 46°11' W 123°51'39620.1
2015-Aug-22 08:28N 46°05' W 122°56'3941.7
2015-Aug-22 07:32N 46°11' W 123°51'3984.5
2015-Aug-22 07:04N 46°05' W 122°56'3972.9
2015-Aug-22 06:32N 46°11' W 123°51'56375.8
2015-Aug-22 06:23N 45°37' W 122°48'29439.2
2015-Aug-22 06:19N 46°05' W 122°56'2091.3
2015-Aug-22 06:05N 46°12' W 123°23'2034.7
2015-Aug-22 05:32N 46°11' W 123°51'20525.1
2015-Aug-22 05:29N 46°12' W 123°23'20263.6
2015-Aug-22 05:25N 46°05' W 122°56'29214.6
2015-Aug-22 05:17N 45°37' W 122°48'5674.1
2015-Aug-22 04:32N 46°11' W 123°51'39345.0
2015-Aug-22 04:25N 46°05' W 122°56'3944.1
2015-Aug-22 03:32N 46°11' W 123°51'39342.5
2015-Aug-22 03:25N 46°05' W 122°56'29214.1
2015-Aug-22 03:17N 45°37' W 122°48'5674.1
2015-Aug-22 02:32N 46°11' W 123°51'56568.5
2015-Aug-22 02:26N 45°37' W 122°48'29132.8
2015-Aug-22 02:13N 46°05' W 122°56'2941.9
2015-Aug-22 01:32N 45°37' W 122°48'5633448.7
2015-Aug-22 01:32N 46°11' W 123°51'39239.4
2015-Aug-22 01:22N 46°05' W 122°56'3946.7
2015-Aug-22 00:32N 46°11' W 123°51'39625.6
2015-Aug-22 00:28N 46°05' W 122°56'2985.7
2015-Aug-22 00:08N 45°37' W 122°48'5692.5
2015-Aug-21 23:32N 46°11' W 123°51'39342.5
2015-Aug-21 23:25N 46°05' W 122°56'29213.7
2015-Aug-21 23:17N 45°37' W 122°48'5674.2
2015-Aug-21 22:32N 46°11' W 123°51'392759.8
2015-Aug-21 22:31N 46°05' W 122°56'29338.4
2015-Aug-21 22:26N 45°37' W 122°48'43179.7
2015-Aug-21 22:11N 46°12' W 123°23'4364.9
2015-Aug-21 21:32N 45°37' W 122°48'5628670.3
2015-Aug-21 21:32N 46°11' W 123°51'39341.6
2015-Aug-21 21:25N 46°05' W 122°56'3944.2
2015-Aug-21 20:32N 46°11' W 123°51'39601.5
2015-Aug-21 20:28N 46°05' W 122°56'29860.2
2015-Aug-21 20:26N 45°37' W 122°48'5661.8
2015-Aug-21 19:32N 46°11' W 123°51'56568.5
2015-Aug-21 19:26N 45°37' W 122°48'291779.7
2015-Aug-21 19:25N 46°05' W 122°56'3944.2
2015-Aug-21 18:32N 46°11' W 123°51'392513.4
2015-Aug-21 18:31N 46°05' W 122°56'2929.2
2015-Aug-21 17:32N 45°37' W 122°48'5625086.5
2015-Aug-21 17:32N 46°11' W 123°51'392706.8
2015-Aug-21 17:31N 46°05' W 122°56'2929.2
2015-Aug-21 16:32N 45°37' W 122°48'5625084.9
2015-Aug-21 16:32N 46°11' W 123°51'392655.7
2015-Aug-21 16:31N 46°05' W 122°56'0 0.0
2015-Aug-21 15:32N 46°05' W 122°56'394139.8
2015-Aug-21 15:32N 46°11' W 123°51'561166.8
2015-Aug-21 15:29N 45°37' W 122°48'5658.6
2015-Aug-21 14:32N 46°11' W 123°51'39204.3
2015-Aug-21 14:20N 46°05' W 122°56'3945.6
2015-Aug-21 13:29N 46°11' W 123°51'39427.8
2015-Aug-21 13:23N 46°05' W 122°56'29269.5
2015-Aug-21 13:17N 45°37' W 122°48'43417.2
2015-Aug-21 13:11N 46°12' W 123°23'2030.1
2015-Aug-21 12:32N 46°11' W 123°51'39944.6
2015-Aug-21 12:29N 46°05' W 122°56'294128.8
2015-Aug-21 12:29N 45°37' W 122°48'2930.4
2015-Aug-21 11:32N 46°05' W 122°56'394398.5
2015-Aug-21 11:32N 46°11' W 123°51'56373.7
2015-Aug-21 11:23N 45°37' W 122°48'5665.5
2015-Aug-21 10:32N 46°11' W 123°51'39914.0
2015-Aug-21 10:29N 46°05' W 122°56'294487.8
2015-Aug-21 10:29N 45°37' W 122°48'2930.4
2015-Aug-21 09:32N 46°05' W 122°56'294486.9
2015-Aug-21 09:32N 45°37' W 122°48'5640135.8
2015-Aug-21 09:32N 46°11' W 123°51'5655.8
2015-Aug-21 08:32N 45°37' W 122°48'5620067.9
2015-Aug-21 08:32N 46°11' W 123°51'39938.3
2015-Aug-21 08:29N 46°05' W 122°56'2930.0
2015-Aug-21 07:32N 45°37' W 122°48'5633446.5
2015-Aug-21 07:32N 46°11' W 123°51'39424.0
2015-Aug-21 07:26N 46°05' W 122°56'2931.6
2015-Aug-21 06:32N 45°37' W 122°48'5633446.5
2015-Aug-21 06:32N 46°11' W 123°51'39832.8
2015-Aug-21 06:29N 46°05' W 122°56'2066.7
2015-Aug-21 06:11N 46°12' W 123°23'2031.6
2015-Aug-21 05:32N 46°05' W 122°56'3910826.8
2015-Aug-21 05:32N 46°11' W 123°51'56575.0
2015-Aug-21 05:26N 45°37' W 122°48'0 0.0
2015-Aug-21 04:32N 45°37' W 122°48'5620067.9
2015-Aug-21 04:32N 46°11' W 123°51'39832.9
2015-Aug-21 04:29N 46°05' W 122°56'3941.0
2015-Aug-21 03:32N 46°11' W 123°51'39197.7
2015-Aug-21 03:20N 46°05' W 122°56'2925799.6
2015-Aug-21 03:20N 45°37' W 122°48'0 0.0
2015-Aug-21 02:32N 45°37' W 122°48'5633446.5
2015-Aug-21 02:32N 46°11' W 123°51'20370.3
2015-Aug-21 02:29N 46°12' W 123°23'20455.2
2015-Aug-21 02:26N 46°05' W 122°56'2931.8
2015-Aug-21 01:32N 45°37' W 122°48'5650169.8
2015-Aug-21 01:32N 46°11' W 123°51'39827.9
2015-Aug-21 01:29N 46°05' W 122°56'2930.1
2015-Aug-21 00:32N 45°37' W 122°48'5633448.7
2015-Aug-21 00:32N 46°11' W 123°51'39158.7
2015-Aug-21 00:17N 46°05' W 122°56'2938.1
2015-Aug-20 23:32N 45°37' W 122°48'5628670.3
2015-Aug-20 23:32N 46°11' W 123°51'39828.0
2015-Aug-20 23:29N 46°05' W 122°56'0 0.0
2015-Aug-20 22:32N 46°05' W 122°56'2934399.5
2015-Aug-20 22:32N 45°37' W 122°48'5625084.9
2015-Aug-20 22:32N 46°11' W 123°51'0 0.0
2015-Aug-20 21:32N 46°11' W 123°51'20127.0
2015-Aug-20 21:23N 46°12' W 123°23'43964.7
2015-Aug-20 21:20N 45°37' W 122°48'0 0.0
2015-Aug-20 20:32N 45°37' W 122°48'5625086.5
2015-Aug-20 20:32N 46°11' W 123°51'0 0.0
2015-Aug-20 19:32N 46°11' W 123°51'39131.1
2015-Aug-20 19:14N 46°05' W 122°56'0 0.0
2015-Aug-20 18:32N 46°05' W 122°56'3915639.1
2015-Aug-20 18:32N 46°11' W 123°51'3939.2
2015-Aug-20 17:32N 46°05' W 122°56'3917594.0
2015-Aug-20 17:32N 46°11' W 123°51'561173.6
2015-Aug-20 17:29N 45°37' W 122°48'43406.1
2015-Aug-20 17:23N 46°12' W 123°23'2023.1
2015-Aug-20 16:32N 46°11' W 123°51'39823.1
2015-Aug-20 16:29N 46°05' W 122°56'29289.1
2015-Aug-20 16:23N 45°37' W 122°48'5665.4
2015-Aug-20 15:32N 46°11' W 123°51'39157.4
2015-Aug-20 15:17N 46°05' W 122°56'29191.9
2015-Aug-20 15:08N 45°37' W 122°48'2947.7
2015-Aug-20 14:32N 46°05' W 122°56'3970375.9
2015-Aug-20 14:32N 46°11' W 123°51'561140.3
2015-Aug-20 14:29N 45°37' W 122°48'43140.3
2015-Aug-20 14:11N 46°12' W 123°23'2030.3
2015-Aug-20 13:32N 46°11' W 123°51'39393.2
2015-Aug-20 13:26N 46°05' W 122°56'20190.4
2015-Aug-20 13:20N 46°12' W 123°23'43989.3
2015-Aug-20 13:17N 45°37' W 122°48'5674.1
2015-Aug-20 12:32N 46°11' W 123°51'20127.7
2015-Aug-20 12:23N 46°12' W 123°23'43297.4
2015-Aug-20 12:14N 45°37' W 122°48'29188.7
2015-Aug-20 12:05N 46°05' W 122°56'3971.0
2015-Aug-20 11:32N 46°11' W 123°51'561166.8
2015-Aug-20 11:29N 45°37' W 122°48'29561.0
2015-Aug-20 11:26N 46°05' W 122°56'2931.9
2015-Aug-20 10:32N 45°37' W 122°48'5620066.6
2015-Aug-20 10:32N 46°11' W 123°51'39808.9
2015-Aug-20 10:29N 46°05' W 122°56'20191.8
2015-Aug-20 10:23N 46°12' W 123°23'4350.9
2015-Aug-20 09:32N 45°37' W 122°48'2917199.7
2015-Aug-20 09:32N 46°05' W 122°56'2928.7
2015-Aug-20 08:32N 45°37' W 122°48'561078.9
2015-Aug-20 08:29N 46°11' W 123°51'39195.2
2015-Aug-20 08:17N 46°05' W 122°56'2938.3
2015-Aug-20 07:32N 45°37' W 122°48'5650173.1
2015-Aug-20 07:32N 46°11' W 123°51'20488.6
2015-Aug-20 07:30N 46°12' W 123°23'202093.9
2015-Aug-20 07:29N 46°05' W 122°56'3941.1
2015-Aug-20 06:32N 46°11' W 123°51'561166.7
2015-Aug-20 06:29N 45°37' W 122°48'29282.0
2015-Aug-20 06:23N 46°05' W 122°56'3946.0
2015-Aug-20 05:32N 46°11' W 123°51'56566.9
2015-Aug-20 05:26N 45°37' W 122°48'29282.8
2015-Aug-20 05:20N 46°05' W 122°56'20516.1
2015-Aug-20 05:18N 46°12' W 123°23'2025.7
2015-Aug-20 04:32N 46°11' W 123°51'39389.9
2015-Aug-20 04:26N 46°05' W 122°56'20519.8
2015-Aug-20 04:24N 46°12' W 123°23'43391.7
2015-Aug-20 04:17N 45°37' W 122°48'0 0.0
2015-Aug-20 03:32N 45°37' W 122°48'5633448.7
2015-Aug-20 03:32N 46°11' W 123°51'39155.9
2015-Aug-20 03:17N 46°05' W 122°56'3952.2
2015-Aug-20 02:32N 46°11' W 123°51'56566.9
2015-Aug-20 02:26N 45°37' W 122°48'29113.9
2015-Aug-20 02:11N 46°05' W 122°56'3960.2
2015-Aug-20 01:32N 46°11' W 123°51'39260.2
2015-Aug-20 01:23N 46°05' W 122°56'29600.1
2015-Aug-20 01:20N 45°37' W 122°48'5665.4
2015-Aug-20 00:29N 46°11' W 123°51'561153.4
2015-Aug-20 00:26N 45°37' W 122°48'29549.0
2015-Aug-20 00:23N 46°05' W 122°56'3946.0
2015-Aug-19 23:32N 46°11' W 123°51'39777.6
2015-Aug-19 23:29N 46°05' W 122°56'20226.2
2015-Aug-19 23:24N 46°12' W 123°23'43745.6
2015-Aug-19 23:20N 45°37' W 122°48'5669.5
2015-Aug-19 22:32N 46°11' W 123°51'561173.6
2015-Aug-19 22:29N 45°37' W 122°48'29277.4
2015-Aug-19 22:23N 46°05' W 122°56'20107.5
2015-Aug-19 22:12N 46°12' W 123°23'4365.2
2015-Aug-19 21:32N 45°37' W 122°48'5628668.4
2015-Aug-19 21:32N 46°11' W 123°51'39385.6
2015-Aug-19 21:26N 46°05' W 122°56'2932.0
2015-Aug-19 20:32N 45°37' W 122°48'5622297.7
2015-Aug-19 20:32N 46°11' W 123°51'39258.7
2015-Aug-19 20:23N 46°05' W 122°56'2933.9
2015-Aug-19 19:32N 45°37' W 122°48'5633446.5
2015-Aug-19 19:32N 46°11' W 123°51'39769.1
2015-Aug-19 19:29N 46°05' W 122°56'3941.2
2015-Aug-19 18:32N 46°11' W 123°51'56571.8
2015-Aug-19 18:26N 45°37' W 122°48'2981.1
2015-Aug-19 18:05N 46°05' W 122°56'3971.3
2015-Aug-19 17:32N 46°11' W 123°51'56280.7
2015-Aug-19 17:20N 45°37' W 122°48'0 0.0
2015-Aug-19 16:32N 45°37' W 122°48'5622299.1
2015-Aug-19 16:32N 46°11' W 123°51'39257.8
2015-Aug-19 16:23N 46°05' W 122°56'3946.1
2015-Aug-19 15:32N 46°11' W 123°51'561173.6
2015-Aug-19 15:29N 45°37' W 122°48'29140.8
2015-Aug-19 15:17N 46°05' W 122°56'2938.4
2015-Aug-19 14:32N 45°37' W 122°48'5625086.5
2015-Aug-19 14:32N 46°11' W 123°51'20103.0
2015-Aug-19 14:21N 46°12' W 123°23'20181.9
2015-Aug-19 14:14N 46°05' W 122°56'3956.0
2015-Aug-19 13:32N 46°11' W 123°51'3917594.0
2015-Aug-19 13:32N 46°05' W 122°56'20516.1
2015-Aug-19 13:30N 46°12' W 123°23'43275.6
2015-Aug-19 13:20N 45°37' W 122°48'4353.9
2015-Aug-19 12:33N 46°12' W 123°23'202513.0
2015-Aug-19 12:32N 46°11' W 123°51'561173.6
2015-Aug-19 12:29N 45°37' W 122°48'29521.3
2015-Aug-19 12:26N 46°05' W 122°56'3943.5
2015-Aug-19 11:32N 46°11' W 123°51'39748.7
2015-Aug-19 11:29N 46°05' W 122°56'29633.2
2015-Aug-19 11:26N 45°37' W 122°48'43454.0
2015-Aug-19 11:21N 46°12' W 123°23'4353.2
2015-Aug-19 10:32N 45°37' W 122°48'5620069.2
2015-Aug-19 10:32N 46°11' W 123°51'39752.7
2015-Aug-19 10:29N 46°05' W 122°56'20227.6
2015-Aug-19 10:24N 46°12' W 123°23'2022.8
2015-Aug-19 09:32N 46°11' W 123°51'39752.7
2015-Aug-19 09:29N 46°05' W 122°56'20226.9
2015-Aug-19 09:24N 46°12' W 123°23'43140.3
2015-Aug-19 09:05N 45°37' W 122°48'56100.9
2015-Aug-19 08:32N 46°11' W 123°51'39752.7
2015-Aug-19 08:29N 46°05' W 122°56'29300.9
2015-Aug-19 08:23N 45°37' W 122°48'0 0.0
2015-Aug-19 07:32N 45°37' W 122°48'5622299.1
2015-Aug-19 07:32N 46°11' W 123°51'39752.7
2015-Aug-19 07:29N 46°05' W 122°56'  
Track history (hours):
 
Tides and Currents Weather Stations Pressure Air Temp Water Temp Dewpoint Dewpoint Depression Visibility Wind Speed Wind Dir Waves Ship Positions

Zarling

Owner: Clean Rivers Co-op, Portland, OR. More information available from US FCC via Universal Licensing System.

Last reported at 2015-Aug-29 06:33 UTC. Time now 2015-Aug-29 07:21 UTC.
Position N 46°11' W 123°51'.

Length 12 m.

Type: Pollution control. MMSI: 3699126.

Date/timePositionNaut miles runAvg speedWind from/ knotsBaromVisibWave heightAir tempDewpointWater temp
2015-Aug-29 06:33N 46°11' W 123°51'201082.5
2015-Aug-29 06:32N 46°12' W 123°23'20262.7
2015-Aug-29 06:27N 46°05' W 122°56'3943.2
2015-Aug-29 05:33N 46°11' W 123°51'39411.5
2015-Aug-29 05:27N 46°05' W 122°56'29178.3
2015-Aug-29 05:18N 45°37' W 122°48'2938.8
2015-Aug-29 04:33N 46°05' W 122°56'3910053.5
2015-Aug-29 04:33N 46°11' W 123°51'56518.6
2015-Aug-29 04:27N 45°37' W 122°48'5662.4
2015-Aug-29 03:33N 46°11' W 123°51'56355.8
2015-Aug-29 03:24N 45°37' W 122°48'29742.6
2015-Aug-29 03:21N 46°05' W 122°56'0 0.0
2015-Aug-29 02:33N 46°05' W 122°56'398279.5
2015-Aug-29 02:33N 46°11' W 123°51'56998.5
2015-Aug-29 02:30N 45°37' W 122°48'5659.1
2015-Aug-29 01:33N 46°11' W 123°51'568027.2
2015-Aug-29 01:33N 45°37' W 122°48'292023.9
2015-Aug-29 01:32N 46°05' W 122°56'3940.0
2015-Aug-29 00:33N 46°11' W 123°51'391827.9
2015-Aug-29 00:32N 46°05' W 122°56'29794.0
2015-Aug-29 00:30N 45°37' W 122°48'5659.1
2015-Aug-28 23:33N 46°11' W 123°51'56978.9
2015-Aug-28 23:30N 45°37' W 122°48'292023.5
2015-Aug-28 23:29N 46°05' W 122°56'3942.1
2015-Aug-28 22:33N 46°11' W 123°51'56521.2
2015-Aug-28 22:27N 45°37' W 122°48'291911.1
2015-Aug-28 22:26N 46°05' W 122°56'3944.6
2015-Aug-28 21:33N 46°11' W 123°51'391695.8
2015-Aug-28 21:32N 46°05' W 122°56'29121.6
2015-Aug-28 21:18N 45°37' W 122°48'5675.2
2015-Aug-28 20:33N 46°11' W 123°51'391716.5
2015-Aug-28 20:32N 46°05' W 122°56'29155.0
2015-Aug-28 20:21N 45°37' W 122°48'5670.3
2015-Aug-28 19:33N 46°11' W 123°51'567718.4
2015-Aug-28 19:33N 45°37' W 122°48'291911.5
2015-Aug-28 19:32N 46°05' W 122°56'3940.0
2015-Aug-28 18:33N 46°11' W 123°51'567432.6
2015-Aug-28 18:33N 45°37' W 122°48'291947.5
2015-Aug-28 18:32N 46°05' W 122°56'3940.0
2015-Aug-28 17:33N 46°11' W 123°51'391737.7
2015-Aug-28 17:32N 46°05' W 122°56'29825.6
2015-Aug-28 17:30N 45°37' W 122°48'5659.1
2015-Aug-28 16:33N 46°11' W 123°51'39535.2
2015-Aug-28 16:29N 46°05' W 122°56'29839.0
2015-Aug-28 16:27N 45°37' W 122°48'5662.4
2015-Aug-28 15:33N 46°11' W 123°51'391827.9
2015-Aug-28 15:32N 46°05' W 122°56'29154.3
2015-Aug-28 15:21N 45°37' W 122°48'5670.4
2015-Aug-28 14:33N 46°11' W 123°51'567167.6
2015-Aug-28 14:33N 45°37' W 122°48'291810.9
2015-Aug-28 14:32N 46°05' W 122°56'3940.0
2015-Aug-28 13:33N 46°11' W 123°51'56964.8
2015-Aug-28 13:30N 45°37' W 122°48'291843.2
2015-Aug-28 13:29N 46°05' W 122°56'3942.2
2015-Aug-28 12:33N 46°11' W 123°51'391655.9
2015-Aug-28 12:32N 46°05' W 122°56'29338.4
2015-Aug-28 12:27N 45°37' W 122°48'5662.5
2015-Aug-28 11:33N 46°11' W 123°51'567718.9
2015-Aug-28 11:33N 45°37' W 122°48'291749.5
2015-Aug-28 11:32N 46°05' W 122°56'3940.1
2015-Aug-28 10:33N 46°11' W 123°51'391599.4
2015-Aug-28 10:32N 46°05' W 122°56'29340.6
2015-Aug-28 10:27N 45°37' W 122°48'5662.4
2015-Aug-28 09:33N 46°11' W 123°51'56969.5
2015-Aug-28 09:30N 45°37' W 122°48'291843.2
2015-Aug-28 09:29N 46°05' W 122°56'3942.2
2015-Aug-28 08:33N 46°11' W 123°51'391655.9
2015-Aug-28 08:32N 46°05' W 122°56'29852.9
2015-Aug-28 08:30N 45°37' W 122°48'43673.9
2015-Aug-28 08:26N 46°12' W 123°23'2022.3
2015-Aug-28 07:33N 46°11' W 123°51'567167.6
2015-Aug-28 07:33N 45°37' W 122°48'433026.5
2015-Aug-28 07:32N 46°12' W 123°23'208142.9
2015-Aug-28 07:32N 46°05' W 122°56'3940.0
2015-Aug-28 06:33N 46°11' W 123°51'20963.9
2015-Aug-28 06:32N 46°12' W 123°23'20100.1
2015-Aug-28 06:20N 46°05' W 122°56'29867.4
2015-Aug-28 06:18N 45°37' W 122°48'5675.1
2015-Aug-28 05:33N 46°11' W 123°51'391599.4
2015-Aug-28 05:32N 46°05' W 122°56'29346.4
2015-Aug-28 05:27N 45°37' W 122°48'43200.2
2015-Aug-28 05:14N 46°12' W 123°23'2028.8
2015-Aug-28 04:33N 46°11' W 123°51'569122.4
2015-Aug-28 04:33N 45°37' W 122°48'291638.4
2015-Aug-28 04:32N 46°05' W 122°56'3940.0
2015-Aug-28 03:33N 46°11' W 123°51'39529.1
2015-Aug-28 03:29N 46°05' W 122°56'29874.7
2015-Aug-28 03:27N 45°37' W 122°48'5659.1
2015-Aug-28 02:30N 46°11' W 123°51'56983.8
2015-Aug-28 02:27N 45°37' W 122°48'29244.6
2015-Aug-28 02:20N 46°05' W 122°56'3950.4
2015-Aug-28 01:33N 46°11' W 123°51'391581.4
2015-Aug-28 01:32N 46°05' W 122°56'29345.2
2015-Aug-28 01:27N 45°37' W 122°48'5662.5
2015-Aug-28 00:33N 46°11' W 123°51'568362.2
2015-Aug-28 00:33N 45°37' W 122°48'29242.9
2015-Aug-28 00:26N 46°05' W 122°56'3944.7
2015-Aug-27 23:33N 46°11' W 123°51'391581.5
2015-Aug-27 23:32N 46°05' W 122°56'29158.1
2015-Aug-27 23:21N 45°37' W 122°48'5670.1
2015-Aug-27 22:33N 46°11' W 123°51'391636.6
2015-Aug-27 22:32N 46°05' W 122°56'29905.4
2015-Aug-27 22:30N 45°37' W 122°48'5659.0
2015-Aug-27 21:33N 46°11' W 123°51'391599.5
2015-Aug-27 21:32N 46°05' W 122°56'29217.3
2015-Aug-27 21:24N 45°37' W 122°48'5666.1
2015-Aug-27 20:33N 46°11' W 123°51'56993.5
2015-Aug-27 20:30N 45°37' W 122°48'5659.2
2015-Aug-27 19:34N 46°11' W 123°51'39384.6
2015-Aug-27 19:27N 46°05' W 122°56'29270.9
2015-Aug-27 19:21N 45°37' W 122°48'5670.3
2015-Aug-27 18:34N 46°11' W 123°51'567433.0
2015-Aug-27 18:33N 45°37' W 122°48'43373.7
2015-Aug-27 18:26N 46°12' W 123°23'20112.9
2015-Aug-27 18:15N 46°05' W 122°56'3956.0
2015-Aug-27 17:33N 46°11' W 123°51'2060.7
2015-Aug-27 17:14N 46°12' W 123°23'2028.8
2015-Aug-27 16:34N 46°11' W 123°51'39756.7
2015-Aug-27 16:30N 46°05' W 122°56'29272.3
2015-Aug-27 16:24N 45°37' W 122°48'43258.1
2015-Aug-27 16:14N 46°12' W 123°23'2028.9
2015-Aug-27 15:34N 46°11' W 123°51'568725.7
2015-Aug-27 15:33N 45°37' W 122°48'29195.9
2015-Aug-27 15:24N 46°05' W 122°56'3946.1
2015-Aug-27 14:33N 46°11' W 123°51'5610034.6
2015-Aug-27 14:33N 45°37' W 122°48'2957.8
2015-Aug-27 14:03N 46°05' W 122°56'3971.3
2015-Aug-27 13:30N 46°11' W 123°51'39258.3
2015-Aug-27 13:21N 46°05' W 122°56'20977.1
2015-Aug-27 13:20N 46°12' W 123°23'431286.2
2015-Aug-27 13:18N 45°37' W 122°48'5674.9
2015-Aug-27 12:34N 46°11' W 123°51'3920107.4
2015-Aug-27 12:33N 46°05' W 122°56'29529.3
2015-Aug-27 12:30N 45°37' W 122°48'43640.5
2015-Aug-27 12:26N 46°12' W 123°23'2022.3
2015-Aug-27 11:34N 46°11' W 123°51'20159.6
2015-Aug-27 11:26N 46°12' W 123°23'20704.7
2015-Aug-27 11:24N 46°05' W 122°56'29185.6
2015-Aug-27 11:15N 45°37' W 122°48'2941.2
2015-Aug-27 10:33N 46°05' W 122°56'295733.2
2015-Aug-27 10:33N 45°37' W 122°48'56600.8
2015-Aug-27 10:28N 46°11' W 123°51'20158.5
2015-Aug-27 10:20N 46°12' W 123°23'2025.2
2015-Aug-27 09:34N 46°11' W 123°51'3920107.4
2015-Aug-27 09:33N 46°05' W 122°56'2043.2
2015-Aug-27 09:05N 46°12' W 123°23'2037.1
2015-Aug-27 08:34N 46°11' W 123°51'56519.9
2015-Aug-27 08:27N 45°37' W 122°48'43366.6
2015-Aug-27 08:20N 46°12' W 123°23'20158.6
2015-Aug-27 08:12N 46°05' W 122°56'3960.3
2015-Aug-27 07:34N 46°11' W 123°51'3917594.0
2015-Aug-27 07:33N 46°05' W 122°56'20290.8
2015-Aug-27 07:29N 46°12' W 123°23'43512.7
2015-Aug-27 07:24N 45°37' W 122°48'0 0.0
2015-Aug-27 06:33N 45°37' W 122°48'561286.4
2015-Aug-27 06:31N 46°11' W 123°51'39380.4
2015-Aug-27 06:24N 46°05' W 122°56'20286.3
2015-Aug-27 06:20N 46°12' W 123°23'2023.7
2015-Aug-27 05:31N 46°11' W 123°51'56518.6
2015-Aug-27 05:24N 45°37' W 122°48'43645.8
2015-Aug-27 05:20N 46°12' W 123°23'20156.9
2015-Aug-27 05:12N 46°05' W 122°56'3956.2
2015-Aug-27 04:31N 46°11' W 123°51'5658.2
2015-Aug-27 03:33N 45°37' W 122°48'561270.2
2015-Aug-27 03:31N 46°11' W 123°51'39378.4
2015-Aug-27 03:24N 46°05' W 122°56'0 0.0
2015-Aug-27 02:33N 46°05' W 122°56'39842.8
2015-Aug-27 02:31N 46°11' W 123°51'56217.7
2015-Aug-27 02:15N 45°37' W 122°48'5675.0
2015-Aug-27 01:31N 46°11' W 123°51'56217.0
2015-Aug-27 01:15N 45°37' W 122°48'5675.0
2015-Aug-27 00:31N 46°11' W 123°51'56356.4
2015-Aug-27 00:21N 45°37' W 122°48'29105.3
2015-Aug-27 00:05N 46°05' W 122°56'3968.5
2015-Aug-26 23:31N 46°11' W 123°51'391340.5
2015-Aug-26 23:29N 46°05' W 122°56'29224.9
2015-Aug-26 23:21N 45°37' W 122°48'0 0.0
2015-Aug-26 22:33N 45°37' W 122°48'561270.2
2015-Aug-26 22:31N 46°11' W 123°51'391340.5
2015-Aug-26 22:29N 46°05' W 122°56'2930.9
2015-Aug-26 21:33N 45°37' W 122°48'561329.0
2015-Aug-26 21:31N 46°11' W 123°51'3990.6
2015-Aug-26 21:05N 46°05' W 122°56'3968.6
2015-Aug-26 20:31N 46°11' W 123°51'39490.4
2015-Aug-26 20:26N 46°05' W 122°56'29372.6
2015-Aug-26 20:21N 45°37' W 122°48'5666.2
2015-Aug-26 19:31N 46°11' W 123°51'56355.2
2015-Aug-26 19:21N 45°37' W 122°48'29105.0
2015-Aug-26 19:05N 46°05' W 122°56'3963.0
2015-Aug-26 18:28N 46°11' W 123°51'56522.6
2015-Aug-26 18:21N 45°37' W 122°48'29392.5
2015-Aug-26 18:17N 46°05' W 122°56'3950.8
2015-Aug-26 17:31N 46°11' W 123°51'391268.0
2015-Aug-26 17:29N 46°05' W 122°56'29657.3
2015-Aug-26 17:26N 45°37' W 122°48'2931.6
2015-Aug-26 16:32N 46°05' W 122°56'292454.9
2015-Aug-26 16:31N 45°37' W 122°48'566924.5
2015-Aug-26 16:31N 46°11' W 123°51'0 0.0
2015-Aug-26 15:31N 46°11' W 123°51'39118.8
2015-Aug-26 15:11N 46°05' W 122°56'29416.2
2015-Aug-26 15:07N 45°37' W 122°48'5692.7
2015-Aug-26 14:31N 46°11' W 123°51'39298.2
2015-Aug-26 14:23N 46°05' W 122°56'29243.4
2015-Aug-26 14:16N 45°37' W 122°48'5674.1
2015-Aug-26 13:31N 46°11' W 123°51'56376.5
2015-Aug-26 13:22N 45°37' W 122°48'0 0.0
2015-Aug-26 12:31N 45°37' W 122°48'561067.4
2015-Aug-26 12:28N 46°11' W 123°51'39485.3
2015-Aug-26 12:23N 46°05' W 122°56'0 0.0
2015-Aug-26 11:32N 46°05' W 122°56'291638.1
2015-Aug-26 11:31N 45°37' W 122°48'561078.9
2015-Aug-26 11:28N 46°11' W 123°51'5658.8
2015-Aug-26 10:31N 45°37' W 122°48'5650169.8
2015-Aug-26 10:31N 46°11' W 123°51'39214.9
2015-Aug-26 10:20N 46°05' W 122°56'20212.4
2015-Aug-26 10:14N 46°12' W 123°23'0 0.0
2015-Aug-26 09:32N 46°12' W 123°23'20879.5
2015-Aug-26 09:31N 46°11' W 123°51'39296.9
2015-Aug-26 09:23N 46°05' W 122°56'29107.2
2015-Aug-26 09:07N 45°37' W 122°48'5692.9
2015-Aug-26 08:31N 46°11' W 123°51'391172.9
2015-Aug-26 08:29N 46°05' W 122°56'20446.9
2015-Aug-26 08:26N 46°12' W 123°23'43354.0
2015-Aug-26 08:19N 45°37' W 122°48'5669.5
2015-Aug-26 07:31N 46°11' W 123°51'20740.7
2015-Aug-26 07:29N 46°12' W 123°23'431978.6
2015-Aug-26 07:28N 45°37' W 122°48'29860.0
2015-Aug-26 07:26N 46°05' W 122°56'3942.6
2015-Aug-26 06:31N 46°11' W 123°51'20710.8
2015-Aug-26 06:29N 46°12' W 123°23'43250.6
2015-Aug-26 06:19N 45°37' W 122°48'5669.5
2015-Aug-26 05:31N 46°11' W 123°51'56566.9
2015-Aug-26 05:25N 45°37' W 122°48'29156.9
2015-Aug-26 05:14N 46°05' W 122°56'0 0.0
2015-Aug-26 04:29N 46°05' W 122°56'392234.2
2015-Aug-26 04:28N 46°11' W 123°51'3942.0
2015-Aug-26 03:32N 46°05' W 122°56'291638.1
2015-Aug-26 03:31N 45°37' W 122°48'56100339.4
2015-Aug-26 03:31N 46°11' W 123°51'0 0.0
2015-Aug-26 02:31N 46°11' W 123°51'56140.3
2015-Aug-26 02:07N 45°37' W 122°48'2947.6
2015-Aug-26 01:31N 46°05' W 122°56'3946917.3
2015-Aug-26 01:31N 46°11' W 123°51'3939.1
2015-Aug-26 00:31N 46°05' W 122°56'39140748.6
2015-Aug-26 00:31N 46°11' W 123°51'56281.1
2015-Aug-26 00:19N 45°37' W 122°48'0 0.0
2015-Aug-25 23:31N 45°37' W 122°48'5633446.5
2015-Aug-25 23:31N 46°11' W 123°51'39786.3
2015-Aug-25 23:28N 46°05' W 122°56'3941.1
2015-Aug-25 22:31N 46°11' W 123°51'561166.8
2015-Aug-25 22:28N 45°37' W 122°48'29189.4
2015-Aug-25 22:19N 46°05' W 122°56'3948.8
2015-Aug-25 21:31N 46°11' W 123°51'56281.9
2015-Aug-25 21:19N 45°37' W 122°48'29283.5
2015-Aug-25 21:13N 46°05' W 122°56'2941.0
2015-Aug-25 20:31N 45°37' W 122°48'5633448.7
2015-Aug-25 20:31N 46°11' W 123°51'20245.2
2015-Aug-25 20:26N 46°12' W 123°23'20288.5
2015-Aug-25 20:22N 46°05' W 122°56'2024.6
2015-Aug-25 19:32N 46°12' W 123°23'432205.0
2015-Aug-25 19:31N 45°37' W 122°48'5666893.0
2015-Aug-25 19:31N 46°11' W 123°51'39389.9
2015-Aug-25 19:25N 46°05' W 122°56'2931.9
2015-Aug-25 18:31N 45°37' W 122°48'5625084.9
2015-Aug-25 18:31N 46°11' W 123°51'2096.4
2015-Aug-25 18:19N 46°12' W 123°23'4354.0
2015-Aug-25 17:31N 45°37' W 122°48'5633448.7
2015-Aug-25 17:31N 46°11' W 123°51'39385.6
2015-Aug-25 17:25N 46°05' W 122°56'209160.7
2015-Aug-25 17:25N 46°12' W 123°23'4347.9
2015-Aug-25 16:31N 45°37' W 122°48'5628670.3
2015-Aug-25 16:31N 46°11' W 123°51'20187.6
2015-Aug-25 16:25N 46°12' W 123°23'4348.0
2015-Aug-25 15:31N 45°37' W 122°48'437015.9
2015-Aug-25 15:31N 46°12' W 123°23'20426.4
2015-Aug-25 15:28N 46°11' W 123°51'391135.1
2015-Aug-25 15:26N 46°05' W 122°56'3942.8
2015-Aug-25 14:31N 46°11' W 123°51'39455.5
2015-Aug-25 14:26N 46°05' W 122°56'29253.6
2015-Aug-25 14:19N 45°37' W 122°48'5669.6
2015-Aug-25 13:31N 46°11' W 123°51'56563.7
2015-Aug-25 13:25N 45°37' W 122°48'29330.8
2015-Aug-25 13:20N 46°05' W 122°56'3947.9
2015-Aug-25 12:31N 46°11' W 123°51'39464.5
2015-Aug-25 12:26N 46°05' W 122°56'29252.9
2015-Aug-25 12:19N 45°37' W 122°48'0 0.0
2015-Aug-25 11:31N 45°37' W 122°48'5633446.5
2015-Aug-25 11:31N 46°11' W 123°51'39464.5
2015-Aug-25 11:26N 46°05' W 122°56'3942.7
2015-Aug-25 10:31N 46°11' W 123°51'391019.9
2015-Aug-25 10:29N 46°05' W 122°56'29179.8
2015-Aug-25 10:19N 45°37' W 122°48'0 0.0
2015-Aug-25 09:31N 45°37' W 122°48'5628670.3
2015-Aug-25 09:31N 46°11' W 123°51'39441.2
2015-Aug-25 09:26N 46°05' W 122°56'2931.5
2015-Aug-25 08:31N 45°37' W 122°48'56200678.9
2015-Aug-25 08:31N 46°11' W 123°51'39970.7
2015-Aug-25 08:29N 46°05' W 122°56'2929.9
2015-Aug-25 07:31N 45°37' W 122°48'5633446.5
2015-Aug-25 07:31N 46°11' W 123°51'39207.0
2015-Aug-25 07:20N 46°05' W 122°56'3948.2
2015-Aug-25 06:31N 46°11' W 123°51'56565.3
2015-Aug-25 06:25N 45°37' W 122°48'29316.6
2015-Aug-25 06:20N 46°05' W 122°56'2935.4
2015-Aug-25 05:31N 45°37' W 122°48'5666893.0
2015-Aug-25 05:31N 46°11' W 123°51'39433.1
2015-Aug-25 05:26N 46°05' W 122°56'3943.0
2015-Aug-25 04:31N 46°11' W 123°51'56562.1
2015-Aug-25 04:25N 45°37' W 122°48'0 0.0
2015-Aug-25 03:31N 45°37' W 122°48'56100339.4
2015-Aug-25 03:31N 46°11' W 123°51'39430.4
2015-Aug-25 03:26N 46°05' W 122°56'3943.0
2015-Aug-25 02:31N 46°11' W 123°51'56562.2
2015-Aug-25 02:25N 45°37' W 122°48'29202.4
2015-Aug-25 02:17N 46°05' W 122°56'0 0.0
2015-Aug-25 01:32N 46°05' W 122°56'394021.5
2015-Aug-25 01:31N 46°11' W 123°51'561133.9
2015-Aug-25 01:28N 45°37' W 122°48'5658.6
2015-Aug-25 00:31N 46°11' W 123°51'39991.2
2015-Aug-25 00:29N 46°05' W 122°56'29489.2
2015-Aug-25 00:25N 45°37' W 122°48'5661.9
2015-Aug-24 23:31N 46°11' W 123°51'39427.8
2015-Aug-24 23:26N 46°05' W 122°56'29137.6
2015-Aug-24 23:13N 45°37' W 122°48'0 0.0
2015-Aug-24 22:31N 45°37' W 122°48'5650169.7
2015-Aug-24 22:31N 46°11' W 123°51'39977.4
2015-Aug-24 22:29N 46°05' W 122°56'2929.9
2015-Aug-24 21:31N 45°37' W 122°48'5666893.0
2015-Aug-24 21:31N 46°11' W 123°51'39204.3
2015-Aug-24 21:20N 46°05' W 122°56'3948.3
2015-Aug-24 20:31N 46°11' W 123°51'56566.9
2015-Aug-24 20:25N 45°37' W 122°48'29674.6
2015-Aug-24 20:23N 46°05' W 122°56'0 0.0
2015-Aug-24 19:32N 46°05' W 122°56'293969.2
2015-Aug-24 19:31N 45°37' W 122°48'5650169.7
2015-Aug-24 19:31N 46°11' W 123°51'0 0.0
2015-Aug-24 18:31N 46°11' W 123°51'39429.1
2015-Aug-24 18:26N 46°05' W 122°56'293823.0
2015-Aug-24 18:25N 45°37' W 122°48'4349.3
2015-Aug-24 17:33N 46°12' W 123°23'431470.2
2015-Aug-24 17:31N 45°37' W 122°48'5633448.7
2015-Aug-24 17:31N 46°11' W 123°51'39277.1
2015-Aug-24 17:23N 46°05' W 122°56'3945.6
2015-Aug-24 16:31N 46°11' W 123°51'561146.7
2015-Aug-24 16:28N 45°37' W 122°48'43193.6
2015-Aug-24 16:15N 46°12' W 123°23'2026.8
2015-Aug-24 15:31N 46°11' W 123°51'39693.4
2015-Aug-24 15:28N 46°05' W 122°56'201465.7
2015-Aug-24 15:27N 46°12' W 123°23'2021.0
2015-Aug-24 14:31N 46°11' W 123°51'39251.8
2015-Aug-24 14:22N 46°05' W 122°56'29200.0
2015-Aug-24 14:13N 45°37' W 122°48'0 0.0
2015-Aug-24 13:31N 45°37' W 122°48'5620067.9
2015-Aug-24 13:31N 46°11' W 123°51'20282.6
2015-Aug-24 13:27N 46°12' W 123°23'2086.7
2015-Aug-24 13:13N 46°05' W 122°56'2941.3
2015-Aug-24 12:31N 45°37' W 122°48'5640135.8
2015-Aug-24 12:31N 46°11' W 123°51'396397.8
2015-Aug-24 12:31N 46°05' W 122°56'20251.8
2015-Aug-24 12:26N 46°12' W 123°23'0 0.0
2015-Aug-24 11:32N 46°12' W 123°23'433283.7
2015-Aug-24 11:31N 45°37' W 122°48'5633446.5
2015-Aug-24 11:31N 46°11' W 123°51'397408.0
2015-Aug-24 11:31N 46°05' W 122°56'2927.5
2015-Aug-24 10:28N 45°37' W 122°48'5640135.8
2015-Aug-24 10:28N 46°11' W 123°51'39703.7
2015-Aug-24 10:25N 46°05' W 122°56'2932.1
2015-Aug-24 09:31N 45°37' W 122°48'5640138.4
2015-Aug-24 09:31N 46°11' W 123°51'39250.9
2015-Aug-24 09:22N 46°05' W 122°56'3946.3
2015-Aug-24 08:31N 46°11' W 123°51'396397.8
2015-Aug-24 08:31N 46°05' W 122°56'29683.4
2015-Aug-24 08:28N 45°37' W 122°48'0 0.0
2015-Aug-24 07:31N 45°37' W 122°48'56200678.9
2015-Aug-24 07:31N 46°11' W 123°51'395630.1
2015-Aug-24 07:31N 46°05' W 122°56'3939.3
2015-Aug-24 06:31N 46°11' W 123°51'56563.7
2015-Aug-24 06:25N 45°37' W 122°48'29138.2
2015-Aug-24 06:13N 46°05' W 122°56'2029.9
2015-Aug-24 05:32N 46°12' W 123°23'201636.4
2015-Aug-24 05:31N 46°11' W 123°51'39250.0
2015-Aug-24 05:22N 46°05' W 122°56'29661.7
2015-Aug-24 05:19N 45°37' W 122°48'5665.5
2015-Aug-24 04:28N 46°11' W 123°51'20529.1
2015-Aug-24 04:26N 46°12' W 123°23'434061.4
2015-Aug-24 04:25N 45°37' W 122°48'29181.7
2015-Aug-24 04:16N 46°05' W 122°56'2027.8
2015-Aug-24 03:32N 46°12' W 123°23'433858.7
2015-Aug-24 03:31N 45°37' W 122°48'5633448.7
2015-Aug-24 03:31N 46°11' W 123°51'39189.2
2015-Aug-24 03:19N 46°05' W 122°56'3949.4
2015-Aug-24 02:31N 46°11' W 123°51'561133.9
2015-Aug-24 02:28N 45°37' W 122°48'293440.7
2015-Aug-24 02:28N 46°05' W 122°56'2930.4
2015-Aug-24 01:31N 45°37' W 122°48'5628668.4
2015-Aug-24 01:31N 46°11' W 123°51'39696.8
2015-Aug-24 01:28N 46°05' W 122°56'2930.4
2015-Aug-24 00:31N 45°37' W 122°48'5650169.7
2015-Aug-24 00:31N 46°11' W 123°51'39680.0
2015-Aug-24 00:28N 46°05' W 122°56'2930.5
2015-Aug-23 23:31N 45°37' W 122°48'5666893.0
2015-Aug-23 23:31N 46°11' W 123°51'39686.6
2015-Aug-23 23:28N 46°05' W 122°56'2930.4
2015-Aug-23 22:31N 45°37' W 122°48'5650169.7
2015-Aug-23 22:31N 46°11' W 123°51'0 0.0
2015-Aug-23 21:31N 46°11' W 123°51'561166.7
2015-Aug-23 21:28N 45°37' W 122°48'29137.0
2015-Aug-23 21:16N 46°05' W 122°56'20241.1
2015-Aug-23 21:11N 46°12' W 123°23'2029.7
2015-Aug-23 20:31N 46°11' W 123°51'56563.7
2015-Aug-23 20:25N 45°37' W 122°48'29263.3
2015-Aug-23 20:19N 46°05' W 122°56'3949.4
2015-Aug-23 19:31N 46°11' W 123°51'561140.3
2015-Aug-23 19:28N 45°37' W 122°48'293127.9
2015-Aug-23 19:28N 46°05' W 122°56'3941.5
2015-Aug-23 18:31N 46°11' W 123°51'394853.5
2015-Aug-23 18:31N 46°05' W 122°56'29313.7
2015-Aug-23 18:25N 45°37' W 122°48'43175.2
2015-Aug-23 18:11N 46°12' W 123°23'2029.8
2015-Aug-23 17:31N 46°11' W 123°51'561173.6
2015-Aug-23 17:28N 45°37' W 122°48'432143.5
2015-Aug-23 17:27N 46°12' W 123°23'20516.1
2015-Aug-23 17:25N 46°05' W 122°56'2930.5
2015-Aug-23 16:28N 45°37' W 122°48'5622297.7
2015-Aug-23 16:28N 46°11' W 123°51'39151.7
2015-Aug-23 16:13N 46°05' W 122°56'2941.5
2015-Aug-23 15:31N 45°37' W 122°48'5633446.5
2015-Aug-23 15:31N 46°11' W 123°51'394853.5
2015-Aug-23 15:31N 46°05' W 122°56'20127.0
2015-Aug-23 15:21N 46°12' W 123°23'4351.7
2015-Aug-23 14:31N 45°37' W 122°48'5628670.3
2015-Aug-23 14:31N 46°11' W 123°51'394691.7
2015-Aug-23 14:31N 46°05' W 122°56'2929.0
2015-Aug-23 13:31N 45°37' W 122°48'5640138.4
2015-Aug-23 13:31N 46°11' W 123°51'394398.5
2015-Aug-23 13:31N 46°05' W 122°56'3939.4
2015-Aug-23 12:31N 46°11' W 123°51'394691.6
2015-Aug-23 12:31N 46°05' W 122°56'29721.8
2015-Aug-23 12:28N 45°37' W 122°48'2929.9
2015-Aug-23 11:31N 46°05' W 122°56'39970.7
2015-Aug-23 11:28N 46°11' W 123°51'56566.9
2015-Aug-23 11:23N 45°37' W 122°48'0 0.0
2015-Aug-23 10:31N 45°37' W 122°48'561078.9
2015-Aug-23 10:28N 46°11' W 123°51'39246.5
2015-Aug-23 10:19N 46°05' W 122°56'3946.5
2015-Aug-23 09:28N 46°11' W 123°51'561153.4
2015-Aug-23 09:25N 45°37' W 122°48'292646.7
2015-Aug-23 09:25N 46°05' W 122°56'3943.9
2015-Aug-23 08:31N 46°11' W 123°51'39187.7
2015-Aug-23 08:19N 46°05' W 122°56'29716.7
2015-Aug-23 08:16N 45°37' W 122°48'0 0.0
2015-Aug-23 07:31N 45°37' W 122°48'5666893.0
2015-Aug-23 07:31N 46°11' W 123°51'393909.8
2015-Aug-23 07:31N 46°05' W 122°56'20340.9
2015-Aug-23 07:27N 46°12' W 123°23'0 0.0
2015-Aug-23 06:33N 46°12' W 123°23'431456.1
2015-Aug-23 06:31N 45°37' W 122°48'5650169.8
2015-Aug-23 06:31N 46°11' W 123°51'393909.7
2015-Aug-23 06:31N 46°05' W 122°56'3939.5
2015-Aug-23 05:31N 46°11' W 123°51'394139.7
2015-Aug-23 05:31N 46°05' W 122°56'29753.4
2015-Aug-23 05:29N 45°37' W 122°48'43351.6
2015-Aug-23 05:21N 46°12' W 123°23'4348.8
2015-Aug-23 04:29N 45°37' W 122°48'5625084.9
2015-Aug-23 04:28N 46°11' W 123°51'39352.8
2015-Aug-23 04:22N 46°05' W 122°56'20187.0
2015-Aug-23 04:15N 46°12' W 123°23'4358.8
2015-Aug-23 03:32N 45°37' W 122°48'5628668.4
2015-Aug-23 03:31N 46°11' W 123°51'20115.2
2015-Aug-23 03:21N 46°12' W 123°23'20505.4
2015-Aug-23 03:19N 46°05' W 122°56'3949.5
2015-Aug-23 02:31N 46°11' W 123°51'393909.8
2015-Aug-23 02:31N 46°05' W 122°56'29748.0
2015-Aug-23 02:29N 45°37' W 122°48'0 0.0
2015-Aug-23 01:32N 45°37' W 122°48'5625086.5
2015-Aug-23 01:31N 46°11' W 123°51'39243.5
2015-Aug-23 01:22N 46°05' W 122°56'3946.6
2015-Aug-23 00:31N 46°11' W 123°51'393609.0
2015-Aug-23 00:31N 46°05' W 122°56'29152.5
2015-Aug-23 00:20N 45°37' W 122°48'5669.6
2015-Aug-22 23:31N 46°11' W 123°51'561140.2
2015-Aug-22 23:29N 45°37' W 122°48'292345.4
2015-Aug-22 23:28N 46°05' W 122°56'3941.7
2015-Aug-22 22:32N 46°11' W 123°51'39351.0
2015-Aug-22 22:25N 46°05' W 122°56'29328.7
2015-Aug-22 22:20N 45°37' W 122°48'5669.6
2015-Aug-22 21:32N 46°11' W 123°51'39639.8
2015-Aug-22 21:28N 46°05' W 122°56'29153.1
2015-Aug-22 21:17N 45°37' W 122°48'5674.1
2015-Aug-22 20:31N 46°11' W 123°51'39639.8
2015-Aug-22 20:28N 46°05' W 122°56'3941.7
2015-Aug-22 19:32N 46°11' W 123°51'393432.9
2015-Aug-22 19:31N 46°05' W 122°56'29329.8
2015-Aug-22 19:26N 45°37' W 122°48'43230.7
2015-Aug-22 19:14N 46°12' W 123°23'2027.3
2015-Aug-22 18:32N 46°11' W 123°51'393518.8
2015-Aug-22 18:31N 46°05' W 122°56'29328.7
2015-Aug-22 18:26N 45°37' W 122°48'43497.9
2015-Aug-22 18:20N 46°12' W 123°23'2024.0
2015-Aug-22 17:32N 46°11' W 123°51'393273.3
2015-Aug-22 17:31N 46°05' W 122°56'29331.8
2015-Aug-22 17:26N 45°37' W 122°48'0 0.0
2015-Aug-22 16:32N 45°37' W 122°48'5633446.5
2015-Aug-22 16:32N 46°11' W 123°51'393198.9
2015-Aug-22 16:31N 46°05' W 122°56'2929.1
2015-Aug-22 15:32N 45°37' W 122°48'5666897.4
2015-Aug-22 15:32N 46°11' W 123°51'39125.2
2015-Aug-22 15:13N 46°05' W 122°56'3956.8
2015-Aug-22 14:32N 46°11' W 123°51'20145.7
2015-Aug-22 14:23N 46°12' W 123°23'43671.1
2015-Aug-22 14:20N 45°37' W 122°48'0 0.0
2015-Aug-22 13:32N 45°37' W 122°48'5628670.3
2015-Aug-22 13:32N 46°11' W 123°51'3994.9
2015-Aug-22 13:07N 46°05' W 122°56'2948.9
2015-Aug-22 12:32N 45°37' W 122°48'5650173.1
2015-Aug-22 12:32N 46°11' W 123°51'39240.6
2015-Aug-22 12:22N 46°05' W 122°56'20117.4
2015-Aug-22 12:11N 46°12' W 123°23'2029.5
2015-Aug-22 11:32N 46°11' W 123°51'392932.3
2015-Aug-22 11:31N 46°05' W 122°56'20893.7
2015-Aug-22 11:29N 46°12' W 123°23'433284.0
2015-Aug-22 11:29N 45°37' W 122°48'5658.6
2015-Aug-22 10:32N 46°11' W 123°51'39622.8
2015-Aug-22 10:28N 46°05' W 122°56'29339.5
2015-Aug-22 10:23N 45°37' W 122°48'5665.4
2015-Aug-22 09:32N 46°11' W 123°51'561146.7
2015-Aug-22 09:29N 45°37' W 122°48'291947.1
2015-Aug-22 09:28N 46°05' W 122°56'2074.7
2015-Aug-22 09:11N 46°12' W 123°23'2029.5
2015-Aug-22 08:32N 46°11' W 123°51'39620.1
2015-Aug-22 08:28N 46°05' W 122°56'3941.7
2015-Aug-22 07:32N 46°11' W 123°51'3984.5
2015-Aug-22 07:04N 46°05' W 122°56'3972.9
2015-Aug-22 06:32N 46°11' W 123°51'56375.8
2015-Aug-22 06:23N 45°37' W 122°48'29439.2
2015-Aug-22 06:19N 46°05' W 122°56'2091.3
2015-Aug-22 06:05N 46°12' W 123°23'2034.7
2015-Aug-22 05:32N 46°11' W 123°51'20525.1
2015-Aug-22 05:29N 46°12' W 123°23'20263.6
2015-Aug-22 05:25N 46°05' W 122°56'29214.6
2015-Aug-22 05:17N 45°37' W 122°48'5674.1
2015-Aug-22 04:32N 46°11' W 123°51'39345.0
2015-Aug-22 04:25N 46°05' W 122°56'3944.1
2015-Aug-22 03:32N 46°11' W 123°51'39342.5
2015-Aug-22 03:25N 46°05' W 122°56'29214.1
2015-Aug-22 03:17N 45°37' W 122°48'5674.1
2015-Aug-22 02:32N 46°11' W 123°51'56568.5
2015-Aug-22 02:26N 45°37' W 122°48'29132.8
2015-Aug-22 02:13N 46°05' W 122°56'2941.9
2015-Aug-22 01:32N 45°37' W 122°48'5633448.7
2015-Aug-22 01:32N 46°11' W 123°51'39239.4
2015-Aug-22 01:22N 46°05' W 122°56'3946.7
2015-Aug-22 00:32N 46°11' W 123°51'39625.6
2015-Aug-22 00:28N 46°05' W 122°56'2985.7
2015-Aug-22 00:08N 45°37' W 122°48'5692.5
2015-Aug-21 23:32N 46°11' W 123°51'39342.5
2015-Aug-21 23:25N 46°05' W 122°56'29213.7
2015-Aug-21 23:17N 45°37' W 122°48'5674.2
2015-Aug-21 22:32N 46°11' W 123°51'392759.8
2015-Aug-21 22:31N 46°05' W 122°56'29338.4
2015-Aug-21 22:26N 45°37' W 122°48'43179.7
2015-Aug-21 22:11N 46°12' W 123°23'4364.9
2015-Aug-21 21:32N 45°37' W 122°48'5628670.3
2015-Aug-21 21:32N 46°11' W 123°51'39341.6
2015-Aug-21 21:25N 46°05' W 122°56'3944.2
2015-Aug-21 20:32N 46°11' W 123°51'39601.5
2015-Aug-21 20:28N 46°05' W 122°56'29860.2
2015-Aug-21 20:26N 45°37' W 122°48'5661.8
2015-Aug-21 19:32N 46°11' W 123°51'56568.5
2015-Aug-21 19:26N 45°37' W 122°48'291779.7
2015-Aug-21 19:25N 46°05' W 122°56'3944.2
2015-Aug-21 18:32N 46°11' W 123°51'392513.4
2015-Aug-21 18:31N 46°05' W 122°56'2929.2
2015-Aug-21 17:32N 45°37' W 122°48'5625086.5
2015-Aug-21 17:32N 46°11' W 123°51'392706.8
2015-Aug-21 17:31N 46°05' W 122°56'2929.2
2015-Aug-21 16:32N 45°37' W 122°48'5625084.9
2015-Aug-21 16:32N 46°11' W 123°51'392655.7
2015-Aug-21 16:31N 46°05' W 122°56'0 0.0
2015-Aug-21 15:32N 46°05' W 122°56'394139.8
2015-Aug-21 15:32N 46°11' W 123°51'561166.8
2015-Aug-21 15:29N 45°37' W 122°48'5658.6
2015-Aug-21 14:32N 46°11' W 123°51'39204.3
2015-Aug-21 14:20N 46°05' W 122°56'3945.6
2015-Aug-21 13:29N 46°11' W 123°51'39427.8
2015-Aug-21 13:23N 46°05' W 122°56'29269.5
2015-Aug-21 13:17N 45°37' W 122°48'43417.2
2015-Aug-21 13:11N 46°12' W 123°23'2030.1
2015-Aug-21 12:32N 46°11' W 123°51'39944.6
2015-Aug-21 12:29N 46°05' W 122°56'294128.8
2015-Aug-21 12:29N 45°37' W 122°48'2930.4
2015-Aug-21 11:32N 46°05' W 122°56'394398.5
2015-Aug-21 11:32N 46°11' W 123°51'56373.7
2015-Aug-21 11:23N 45°37' W 122°48'5665.5
2015-Aug-21 10:32N 46°11' W 123°51'39914.0
2015-Aug-21 10:29N 46°05' W 122°56'294487.8
2015-Aug-21 10:29N 45°37' W 122°48'2930.4
2015-Aug-21 09:32N 46°05' W 122°56'294486.9
2015-Aug-21 09:32N 45°37' W 122°48'5640135.8
2015-Aug-21 09:32N 46°11' W 123°51'5655.8
2015-Aug-21 08:32N 45°37' W 122°48'5620067.9
2015-Aug-21 08:32N 46°11' W 123°51'39938.3
2015-Aug-21 08:29N 46°05' W 122°56'2930.0
2015-Aug-21 07:32N 45°37' W 122°48'5633446.5
2015-Aug-21 07:32N 46°11' W 123°51'39424.0
2015-Aug-21 07:26N 46°05' W 122°56'2931.6
2015-Aug-21 06:32N 45°37' W 122°48'5633446.5
2015-Aug-21 06:32N 46°11' W 123°51'39832.8
2015-Aug-21 06:29N 46°05' W 122°56'2066.7
2015-Aug-21 06:11N 46°12' W 123°23'2031.6
2015-Aug-21 05:32N 46°05' W 122°56'3910826.8
2015-Aug-21 05:32N 46°11' W 123°51'56575.0
2015-Aug-21 05:26N 45°37' W 122°48'0 0.0
2015-Aug-21 04:32N 45°37' W 122°48'5620067.9
2015-Aug-21 04:32N 46°11' W 123°51'39832.9
2015-Aug-21 04:29N 46°05' W 122°56'3941.0
2015-Aug-21 03:32N 46°11' W 123°51'39197.7
2015-Aug-21 03:20N 46°05' W 122°56'2925799.6
2015-Aug-21 03:20N 45°37' W 122°48'0 0.0
2015-Aug-21 02:32N 45°37' W 122°48'5633446.5
2015-Aug-21 02:32N 46°11' W 123°51'20370.3
2015-Aug-21 02:29N 46°12' W 123°23'20455.2
2015-Aug-21 02:26N 46°05' W 122°56'2931.8
2015-Aug-21 01:32N 45°37' W 122°48'5650169.8
2015-Aug-21 01:32N 46°11' W 123°51'39827.9
2015-Aug-21 01:29N 46°05' W 122°56'2930.1
2015-Aug-21 00:32N 45°37' W 122°48'5633448.7
2015-Aug-21 00:32N 46°11' W 123°51'39158.7
2015-Aug-21 00:17N 46°05' W 122°56'2938.1
2015-Aug-20 23:32N 45°37' W 122°48'5628670.3
2015-Aug-20 23:32N 46°11' W 123°51'39828.0
2015-Aug-20 23:29N 46°05' W 122°56'0 0.0
2015-Aug-20 22:32N 46°05' W 122°56'2934399.5
2015-Aug-20 22:32N 45°37' W 122°48'5625084.9
2015-Aug-20 22:32N 46°11' W 123°51'0 0.0
2015-Aug-20 21:32N 46°11' W 123°51'20127.0
2015-Aug-20 21:23N 46°12' W 123°23'43964.7
2015-Aug-20 21:20N 45°37' W 122°48'0 0.0
2015-Aug-20 20:32N 45°37' W 122°48'5625086.5
2015-Aug-20 20:32N 46°11' W 123°51'0 0.0
2015-Aug-20 19:32N 46°11' W 123°51'39131.1
2015-Aug-20 19:14N 46°05' W 122°56'0 0.0
2015-Aug-20 18:32N 46°05' W 122°56'3915639.1
2015-Aug-20 18:32N 46°11' W 123°51'3939.2
2015-Aug-20 17:32N 46°05' W 122°56'3917594.0
2015-Aug-20 17:32N 46°11' W 123°51'561173.6
2015-Aug-20 17:29N 45°37' W 122°48'43406.1
2015-Aug-20 17:23N 46°12' W 123°23'2023.1
2015-Aug-20 16:32N 46°11' W 123°51'39823.1
2015-Aug-20 16:29N 46°05' W 122°56'29289.1
2015-Aug-20 16:23N 45°37' W 122°48'5665.4
2015-Aug-20 15:32N 46°11' W 123°51'39157.4
2015-Aug-20 15:17N 46°05' W 122°56'29191.9
2015-Aug-20 15:08N 45°37' W 122°48'2947.7
2015-Aug-20 14:32N 46°05' W 122°56'3970375.9
2015-Aug-20 14:32N 46°11' W 123°51'561140.3
2015-Aug-20 14:29N 45°37' W 122°48'43140.3
2015-Aug-20 14:11N 46°12' W 123°23'2030.3
2015-Aug-20 13:32N 46°11' W 123°51'39393.2
2015-Aug-20 13:26N 46°05' W 122°56'20190.4
2015-Aug-20 13:20N 46°12' W 123°23'43989.3
2015-Aug-20 13:17N 45°37' W 122°48'5674.1
2015-Aug-20 12:32N 46°11' W 123°51'20127.7
2015-Aug-20 12:23N 46°12' W 123°23'43297.4
2015-Aug-20 12:14N 45°37' W 122°48'29188.7
2015-Aug-20 12:05N 46°05' W 122°56'3971.0
2015-Aug-20 11:32N 46°11' W 123°51'561166.8
2015-Aug-20 11:29N 45°37' W 122°48'29561.0
2015-Aug-20 11:26N 46°05' W 122°56'2931.9
2015-Aug-20 10:32N 45°37' W 122°48'5620066.6
2015-Aug-20 10:32N 46°11' W 123°51'39808.9
2015-Aug-20 10:29N 46°05' W 122°56'20191.8
2015-Aug-20 10:23N 46°12' W 123°23'4350.9
2015-Aug-20 09:32N 45°37' W 122°48'2917199.7
2015-Aug-20 09:32N 46°05' W 122°56'2928.7
2015-Aug-20 08:32N 45°37' W 122°48'561078.9
2015-Aug-20 08:29N 46°11' W 123°51'39195.2
2015-Aug-20 08:17N 46°05' W 122°56'2938.3
2015-Aug-20 07:32N 45°37' W 122°48'5650173.1
2015-Aug-20 07:32N 46°11' W 123°51'20488.6
2015-Aug-20 07:30N 46°12' W 123°23'202093.9
2015-Aug-20 07:29N 46°05' W 122°56'3941.1
2015-Aug-20 06:32N 46°11' W 123°51'561166.7
2015-Aug-20 06:29N 45°37' W 122°48'29282.0
2015-Aug-20 06:23N 46°05' W 122°56'3946.0
2015-Aug-20 05:32N 46°11' W 123°51'56566.9
2015-Aug-20 05:26N 45°37' W 122°48'29282.8
2015-Aug-20 05:20N 46°05' W 122°56'20516.1
2015-Aug-20 05:18N 46°12' W 123°23'2025.7
2015-Aug-20 04:32N 46°11' W 123°51'39389.9
2015-Aug-20 04:26N 46°05' W 122°56'20519.8
2015-Aug-20 04:24N 46°12' W 123°23'43391.7
2015-Aug-20 04:17N 45°37' W 122°48'0 0.0
2015-Aug-20 03:32N 45°37' W 122°48'5633448.7
2015-Aug-20 03:32N 46°11' W 123°51'39155.9
2015-Aug-20 03:17N 46°05' W 122°56'3952.2
2015-Aug-20 02:32N 46°11' W 123°51'56566.9
2015-Aug-20 02:26N 45°37' W 122°48'29113.9
2015-Aug-20 02:11N 46°05' W 122°56'3960.2
2015-Aug-20 01:32N 46°11' W 123°51'39260.2
2015-Aug-20 01:23N 46°05' W 122°56'29600.1
2015-Aug-20 01:20N 45°37' W 122°48'5665.4
2015-Aug-20 00:29N 46°11' W 123°51'561153.4
2015-Aug-20 00:26N 45°37' W 122°48'29549.0
2015-Aug-20 00:23N 46°05' W 122°56'3946.0
2015-Aug-19 23:32N 46°11' W 123°51'39777.6
2015-Aug-19 23:29N 46°05' W 122°56'20226.2
2015-Aug-19 23:24N 46°12' W 123°23'43745.6
2015-Aug-19 23:20N 45°37' W 122°48'5669.5
2015-Aug-19 22:32N 46°11' W 123°51'561173.6
2015-Aug-19 22:29N 45°37' W 122°48'29277.4
2015-Aug-19 22:23N 46°05' W 122°56'20107.5
2015-Aug-19 22:12N 46°12' W 123°23'4365.2
2015-Aug-19 21:32N 45°37' W 122°48'5628668.4
2015-Aug-19 21:32N 46°11' W 123°51'39385.6
2015-Aug-19 21:26N 46°05' W 122°56'2932.0
2015-Aug-19 20:32N 45°37' W 122°48'5622297.7
2015-Aug-19 20:32N 46°11' W 123°51'39258.7
2015-Aug-19 20:23N 46°05' W 122°56'2933.9
2015-Aug-19 19:32N 45°37' W 122°48'5633446.5
2015-Aug-19 19:32N 46°11' W 123°51'39769.1
2015-Aug-19 19:29N 46°05' W 122°56'3941.2
2015-Aug-19 18:32N 46°11' W 123°51'56571.8
2015-Aug-19 18:26N 45°37' W 122°48'2981.1
2015-Aug-19 18:05N 46°05' W 122°56'3971.3
2015-Aug-19 17:32N 46°11' W 123°51'56280.7
2015-Aug-19 17:20N 45°37' W 122°48'0 0.0
2015-Aug-19 16:32N 45°37' W 122°48'5622299.1
2015-Aug-19 16:32N 46°11' W 123°51'39257.8
2015-Aug-19 16:23N 46°05' W 122°56'3946.1
2015-Aug-19 15:32N 46°11' W 123°51'561173.6
2015-Aug-19 15:29N 45°37' W 122°48'29140.8
2015-Aug-19 15:17N 46°05' W 122°56'2938.4
2015-Aug-19 14:32N 45°37' W 122°48'5625086.5
2015-Aug-19 14:32N 46°11' W 123°51'20103.0
2015-Aug-19 14:21N 46°12' W 123°23'20181.9
2015-Aug-19 14:14N 46°05' W 122°56'3956.0
2015-Aug-19 13:32N 46°11' W 123°51'3917594.0
2015-Aug-19 13:32N 46°05' W 122°56'20516.1
2015-Aug-19 13:30N 46°12' W 123°23'43275.6
2015-Aug-19 13:20N 45°37' W 122°48'4353.9
2015-Aug-19 12:33N 46°12' W 123°23'202513.0
2015-Aug-19 12:32N 46°11' W 123°51'561173.6
2015-Aug-19 12:29N 45°37' W 122°48'29521.3
2015-Aug-19 12:26N 46°05' W 122°56'3943.5
2015-Aug-19 11:32N 46°11' W 123°51'39748.7
2015-Aug-19 11:29N 46°05' W 122°56'29633.2
2015-Aug-19 11:26N 45°37' W 122°48'43454.0
2015-Aug-19 11:21N 46°12' W 123°23'4353.2
2015-Aug-19 10:32N 45°37' W 122°48'5620069.2
2015-Aug-19 10:32N 46°11' W 123°51'39752.7
2015-Aug-19 10:29N 46°05' W 122°56'20227.6
2015-Aug-19 10:24N 46°12' W 123°23'2022.8
2015-Aug-19 09:32N 46°11' W 123°51'39752.7
2015-Aug-19 09:29N 46°05' W 122°56'20226.9
2015-Aug-19 09:24N 46°12' W 123°23'43140.3
2015-Aug-19 09:05N 45°37' W 122°48'56100.9
2015-Aug-19 08:32N 46°11' W 123°51'39752.7
2015-Aug-19 08:29N 46°05' W 122°56'29300.9
2015-Aug-19 08:23N 45°37' W 122°48'0 0.0
2015-Aug-19 07:32N 45°37' W 122°48'5622299.1
2015-Aug-19 07:32N 46°11' W 123°51'39752.7
2015-Aug-19 07:29N 46°05' W 122°56'  

Dump ship's entire track history